Observation data for Plainview on 02/24/2021      Previous  Date  Next       Current Mesonet Observations  Soil Data  Daily Summary Page  Observations in Plain Language
KPVS 240600Z 26011KT 12/M09 A2984 RMK A01 T01201090  RH  022%=      5-min Rain = 0
KPVS 240601Z 25010KT 12/M09 A2984 RMK A01 T01221091  RH  022%=      5-min Rain = 0
KPVS 240602Z 25010KT 12/M09 A2984 RMK A01 T01231091  RH  022%=      5-min Rain = 0
KPVS 240603Z 25010KT 12/M09 A2984 RMK A01 T01221090  RH  022%=      5-min Rain = 0
KPVS 240604Z 26008KT 12/M09 A2984 RMK A01 T01221090  RH  022%=      5-min Rain = 0
KPVS 240605Z 26010KT 12/M09 A2984 RMK A01 T01211090  RH  022%=      5-min Rain = 0
KPVS 240606Z 26009KT 12/M09 A2984 RMK A01 T01211090  RH  022%=      5-min Rain = 0
KPVS 240607Z 26010KT 12/M09 A2984 RMK A01 T01211090  RH  022%=      5-min Rain = 0
KPVS 240608Z 26009KT 12/M09 A2984 RMK A01 T01211091  RH  022%=      5-min Rain = 0
KPVS 240609Z 26008KT 12/M09 A2985 RMK A01 T01211090  RH  022%=      5-min Rain = 0
KPVS 240610Z 26009G14KT 12/M09 A2985 RMK A01 T01211090  RH  022%=      5-min Rain = 0
KPVS 240611Z 26008G13KT 12/M09 A2985 RMK A01 T01201090  RH  022%=      5-min Rain = 0
KPVS 240612Z 27008KT 12/M09 A2985 RMK A01 T01191090  RH  022%=      5-min Rain = 0
KPVS 240613Z 27008KT 12/M09 A2985 RMK A01 T01171089  RH  023%=      5-min Rain = 0
KPVS 240614Z 28008KT 11/M09 A2985 RMK A01 T01141088  RH  023%=      5-min Rain = 0
KPVS 240615Z 28009KT 11/M09 A2985 RMK A01 T01121088  RH  024%=      5-min Rain = 0
KPVS 240616Z 28010KT 11/M09 A2986 RMK A01 T01121088  RH  024%=      5-min Rain = 0
KPVS 240617Z 28011KT 11/M09 A2986 RMK A01 T01131087  RH  024%=      5-min Rain = 0
KPVS 240618Z 28010KT 11/M09 A2986 RMK A01 T01141088  RH  023%=      5-min Rain = 0
KPVS 240619Z 28010KT 12/M09 A2986 RMK A01 T01161089  RH  023%=      5-min Rain = 0
KPVS 240620Z 29010KT 12/M09 A2986 RMK A01 T01191090  RH  022%=      5-min Rain = 0
KPVS 240621Z 28010KT 12/M09 A2985 RMK A01 T01201090  RH  022%=      5-min Rain = 0
KPVS 240622Z 28011KT 12/M09 A2985 RMK A01 T01201090  RH  022%=      5-min Rain = 0
KPVS 240623Z 28013KT 12/M09 A2985 RMK A01 T01201090  RH  022%=      5-min Rain = 0
KPVS 240624Z 28011KT 12/M09 A2985 RMK A01 T01221090  RH  022%=      5-min Rain = 0
KPVS 240625Z 28012KT 12/M09 A2985 RMK A01 T01221090  RH  022%=      5-min Rain = 0
KPVS 240626Z 28012KT 12/M09 A2985 RMK A01 T01211089  RH  022%=      5-min Rain = 0
KPVS 240627Z 28012KT 12/M09 A2985 RMK A01 T01201090  RH  022%=      5-min Rain = 0
KPVS 240628Z 28011KT 12/M09 A2986 RMK A01 T01201090  RH  022%=      5-min Rain = 0
KPVS 240629Z 28012KT 12/M09 A2986 RMK A01 T01201090  RH  022%=      5-min Rain = 0
KPVS 240630Z 28011KT 12/M09 A2986 RMK A01 T01211090  RH  022%=      5-min Rain = 0
KPVS 240631Z 29011KT 12/M09 A2986 RMK A01 T01221090  RH  022%=      5-min Rain = 0
KPVS 240632Z 29012KT 12/M09 A2986 RMK A01 T01221091  RH  022%=      5-min Rain = 0
KPVS 240633Z 29012G19KT 12/M09 A2986 RMK A01 T01241091  RH  021%=      5-min Rain = 0
KPVS 240634Z 29011KT 13/M09 A2986 RMK A01 T01261092  RH  021%=      5-min Rain = 0
KPVS 240635Z 29013KT 13/M09 A2986 RMK A01 T01271092  RH  021%=      5-min Rain = 0
KPVS 240636Z 29012KT 13/M09 A2986 RMK A01 T01271092  RH  021%=      5-min Rain = 0
KPVS 240637Z 29011KT 13/M09 A2986 RMK A01 T01271091  RH  021%=      5-min Rain = 0
KPVS 240638Z 28012G17KT 12/M09 A2986 RMK A01 T01241090  RH  021%=      5-min Rain = 0
KPVS 240639Z 28013KT 12/M09 A2986 RMK A01 T01231090  RH  022%=      5-min Rain = 0
KPVS 240640Z 28015G21KT 12/M09 A2986 RMK A01 T01241091  RH  021%=      5-min Rain = 0
KPVS 240641Z 27012G17KT 13/M09 A2986 RMK A01 T01251091  RH  021%=      5-min Rain = 0
KPVS 240642Z 27013KT 12/M09 A2986 RMK A01 T01241090  RH  021%=      5-min Rain = 0
KPVS 240643Z 27012KT 12/M09 A2986 RMK A01 T01231091  RH  022%=      5-min Rain = 0
KPVS 240644Z 27011KT 12/M09 A2986 RMK A01 T01221090  RH  022%=      5-min Rain = 0
KPVS 240645Z 27011G16KT 12/M09 A2986 RMK A01 T01201090  RH  022%=      5-min Rain = 0
KPVS 240646Z 27011KT 12/M09 A2986 RMK A01 T01201090  RH  022%=      5-min Rain = 0
KPVS 240647Z 27009KT 12/M09 A2986 RMK A01 T01191090  RH  022%=      5-min Rain = 0
KPVS 240648Z 27012G19KT 12/M09 A2986 RMK A01 T01181089  RH  023%=      5-min Rain = 0
KPVS 240649Z 27012KT 12/M09 A2986 RMK A01 T01191090  RH  022%=      5-min Rain = 0
KPVS 240650Z 27013KT 12/M09 A2986 RMK A01 T01191090  RH  022%=      5-min Rain = 0
KPVS 240651Z 27013G19KT 12/M09 A2986 RMK A01 T01191090  RH  022%=      5-min Rain = 0
KPVS 240652Z 27013KT 12/M09 A2986 RMK A01 T01201090  RH  022%=      5-min Rain = 0
KPVS 240653Z 27011KT 12/M09 A2986 RMK A01 T01191090  RH  022%=      5-min Rain = 0
KPVS 240654Z 27012KT 12/M09 A2986 RMK A01 T01181090  RH  022%=      5-min Rain = 0
KPVS 240655Z 27012KT 12/M09 A2986 RMK A01 T01181090  RH  022%=      5-min Rain = 0
KPVS 240656Z 28012KT 12/M09 A2987 RMK A01 T01191091  RH  022%=      5-min Rain = 0
KPVS 240657Z 28013KT 12/M09 A2987 RMK A01 T01201090  RH  022%=      5-min Rain = 0
KPVS 240658Z 28013KT 12/M09 A2987 RMK A01 T01201090  RH  022%=      5-min Rain = 0
KPVS 240659Z 28014G19KT 12/M09 A2987 RMK A01 T01201090  RH  022%=      5-min Rain = 0
KPVS 240700Z 28012KT 12/M09 A2987 RMK A01 T01201090  RH  022%=      5-min Rain = 0
KPVS 240701Z 29013KT 12/M09 A2987 RMK A01 T01191090  RH  022%=      5-min Rain = 0
KPVS 240702Z 29013KT 12/M09 A2987 RMK A01 T01191091  RH  022%=      5-min Rain = 0
KPVS 240703Z 28013KT 12/M09 A2987 RMK A01 T01191091  RH  022%=      5-min Rain = 0
KPVS 240704Z 28011KT 12/M09 A2987 RMK A01 T01181090  RH  022%=      5-min Rain = 0
KPVS 240705Z 28013KT 12/M09 A2987 RMK A01 T01161090  RH  023%=      5-min Rain = 0
KPVS 240706Z 28013KT 12/M09 A2987 RMK A01 T01161090  RH  023%=      5-min Rain = 0
KPVS 240707Z 28012G17KT 12/M09 A2987 RMK A01 T01161090  RH  023%=      5-min Rain = 0
KPVS 240708Z 28013KT 12/M09 A2987 RMK A01 T01161090  RH  023%=      5-min Rain = 0
KPVS 240709Z 28015G21KT 12/M09 A2987 RMK A01 T01171091  RH  022%=      5-min Rain = 0
KPVS 240710Z 28014G21KT 12/M09 A2987 RMK A01 T01181091  RH  022%=      5-min Rain = 0
KPVS 240711Z 28014KT 12/M09 A2987 RMK A01 T01181091  RH  022%=      5-min Rain = 0
KPVS 240712Z 28014KT 12/M09 A2987 RMK A01 T01171091  RH  022%=      5-min Rain = 0
KPVS 240713Z 27013KT 12/M09 A2987 RMK A01 T01171091  RH  022%=      5-min Rain = 0
KPVS 240714Z 27013KT 12/M09 A2987 RMK A01 T01171091  RH  022%=      5-min Rain = 0
KPVS 240715Z 27013G19KT 12/M09 A2987 RMK A01 T01171091  RH  022%=      5-min Rain = 0
KPVS 240716Z 27012G18KT 12/M09 A2987 RMK A01 T01161091  RH  023%=      5-min Rain = 0
KPVS 240717Z 27014KT 12/M09 A2987 RMK A01 T01161091  RH  023%=      5-min Rain = 0
KPVS 240718Z 27014G20KT 12/M09 A2987 RMK A01 T01151091  RH  023%=      5-min Rain = 0
KPVS 240719Z 28016G21KT 12/M09 A2987 RMK A01 T01151091  RH  023%=      5-min Rain = 0
KPVS 240720Z 28016KT 12/M09 A2987 RMK A01 T01151091  RH  023%=      5-min Rain = 0
KPVS 240721Z 28016KT 12/M09 A2987 RMK A01 T01151091  RH  023%=      5-min Rain = 0
KPVS 240722Z 28015G22KT 12/M09 A2987 RMK A01 T01151091  RH  023%=      5-min Rain = 0
KPVS 240723Z 28014KT 11/M09 A2987 RMK A01 T01141090  RH  023%=      5-min Rain = 0
KPVS 240724Z 28014G20KT 11/M09 A2987 RMK A01 T01141090  RH  023%=      5-min Rain = 0
KPVS 240725Z 28014KT 11/M09 A2987 RMK A01 T01141090  RH  023%=      5-min Rain = 0
KPVS 240726Z 28015G21KT 12/M09 A2987 RMK A01 T01151090  RH  023%=      5-min Rain = 0
KPVS 240727Z 28015KT 12/M09 A2987 RMK A01 T01151090  RH  023%=      5-min Rain = 0
KPVS 240728Z 28015KT 12/M09 A2987 RMK A01 T01151090  RH  023%=      5-min Rain = 0
KPVS 240729Z 28015KT 11/M09 A2988 RMK A01 T01141090  RH  023%=      5-min Rain = 0
KPVS 240730Z 30015G20KT 11/M09 A2989 RMK A01 T01141090  RH  023%=      5-min Rain = 0
KPVS 240731Z 31016G21KT 11/M09 A299 RMK A01 T01141090  RH  023%=      5-min Rain = 0
KPVS 240732Z 30017G25KT 11/M09 A299 RMK A01 T01131090  RH  023%=      5-min Rain = 0
KPVS 240733Z 30015KT 11/M09 A299 RMK A01 T01141090  RH  023%=      5-min Rain = 0
KPVS 240734Z 30017G27KT 11/M09 A2991 RMK A01 T01141089  RH  023%=      5-min Rain = 0
KPVS 240735Z 31022G28KT 11/M09 A2991 RMK A01 T01141088  RH  024%=      5-min Rain = 0
KPVS 240736Z 31017G25KT 12/M09 A2991 RMK A01 T01151086  RH  024%=      5-min Rain = 0
KPVS 240737Z 31016G23KT 12/M09 A2991 RMK A01 T01151086  RH  024%=      5-min Rain = 0
KPVS 240738Z 31017G25KT 11/M09 A2991 RMK A01 T01141086  RH  024%=      5-min Rain = 0
KPVS 240739Z 30020G28KT 11/M09 A2991 RMK A01 T01131086  RH  024%=      5-min Rain = 0
KPVS 240740Z 31019G24KT 11/M09 A2992 RMK A01 T01121086  RH  024%=      5-min Rain = 0
KPVS 240741Z 31016G21KT 11/M09 A2992 RMK A01 T01121085  RH  024%=      5-min Rain = 0
KPVS 240742Z 31016G21KT 11/M09 A2992 RMK A01 T01101085  RH  025%=      5-min Rain = 0
KPVS 240743Z 30018G24KT 11/M08 A2992 RMK A01 T01091084  RH  025%=      5-min Rain = 0
KPVS 240744Z 30016G23KT 11/M08 A2992 RMK A01 T01081084  RH  025%=      5-min Rain = 0
KPVS 240745Z 30015G20KT 11/M08 A2992 RMK A01 T01071083  RH  025%=      5-min Rain = 0
KPVS 240746Z 31015G21KT 11/M08 A2992 RMK A01 T01071083  RH  026%=      5-min Rain = 0
KPVS 240747Z 31013KT 11/M08 A2993 RMK A01 T01061082  RH  026%=      5-min Rain = 0
KPVS 240748Z 31013KT 11/M08 A2993 RMK A01 T01051081  RH  026%=      5-min Rain = 0
KPVS 240749Z 31014KT 10/M08 A2993 RMK A01 T01031081  RH  027%=      5-min Rain = 0
KPVS 240750Z 32011KT 10/M08 A2993 RMK A01 T01031079  RH  027%=      5-min Rain = 0
KPVS 240751Z 31013KT 10/M08 A2993 RMK A01 T01021078  RH  027%=      5-min Rain = 0
KPVS 240752Z 31014G21KT 10/M08 A2993 RMK A01 T01011076  RH  028%=      5-min Rain = 0
KPVS 240753Z 32015G21KT 10/M07 A2993 RMK A01 T01001074  RH  029%=      5-min Rain = 0
KPVS 240754Z 32014G21KT 10/M07 A2993 RMK A01 T01001071  RH  029%=      5-min Rain = 0
KPVS 240755Z 32017G22KT 10/M07 A2993 RMK A01 T00991068  RH  030%=      5-min Rain = 0
KPVS 240756Z 32015G25KT 10/M07 A2993 RMK A01 T00991067  RH  030%=      5-min Rain = 0
KPVS 240757Z 32016G22KT 10/M06 A2993 RMK A01 T00991064  RH  031%=      5-min Rain = 0
KPVS 240758Z 33015G21KT 10/M06 A2993 RMK A01 T00991061  RH  032%=      5-min Rain = 0
KPVS 240759Z 32013KT 10/M06 A2993 RMK A01 T00981061  RH  032%=      5-min Rain = 0
KPVS 240800Z 33015G23KT 10/M06 A2993 RMK A01 T00971059  RH  033%=      5-min Rain = 0
KPVS 240801Z 33018KT 10/M06 A2993 RMK A01 T00961058  RH  033%=      5-min Rain = 0
KPVS 240802Z 33016G21KT 10/M06 A2993 RMK A01 T00961056  RH  034%=      5-min Rain = 0
KPVS 240803Z 33018G24KT 10/M06 A2994 RMK A01 T00961055  RH  034%=      5-min Rain = 0
KPVS 240804Z 33018G24KT 10/M05 A2994 RMK A01 T00951054  RH  034%=      5-min Rain = 0
KPVS 240805Z 33016G22KT 10/M05 A2994 RMK A01 T00951053  RH  035%=      5-min Rain = 0
KPVS 240806Z 33014G21KT 09/M05 A2994 RMK A01 T00941052  RH  035%=      5-min Rain = 0
KPVS 240807Z 34014G19KT 09/M05 A2994 RMK A01 T00931052  RH  036%=      5-min Rain = 0
KPVS 240808Z 34016G21KT 09/M05 A2994 RMK A01 T00921051  RH  036%=      5-min Rain = 0
KPVS 240809Z 33013G19KT 09/M05 A2994 RMK A01 T00921050  RH  036%=      5-min Rain = 0
KPVS 240810Z 33012G19KT 09/M05 A2994 RMK A01 T00901049  RH  037%=      5-min Rain = 0
KPVS 240811Z 34015G21KT 09/M05 A2995 RMK A01 T00891048  RH  037%=      5-min Rain = 0
KPVS 240812Z 34012G17KT 09/M05 A2994 RMK A01 T00891047  RH  038%=      5-min Rain = 0
KPVS 240813Z 34016G24KT 09/M05 A2995 RMK A01 T00881047  RH  038%=      5-min Rain = 0
KPVS 240814Z 34018G24KT 09/M05 A2995 RMK A01 T00891046  RH  038%=      5-min Rain = 0
KPVS 240815Z 35018G26KT 09/M05 A2995 RMK A01 T00891046  RH  038%=      5-min Rain = 0
KPVS 240816Z 35014G20KT 09/M05 A2995 RMK A01 T00891046  RH  038%=      5-min Rain = 0
KPVS 240817Z 34013G21KT 09/M05 A2995 RMK A01 T00881046  RH  039%=      5-min Rain = 0
KPVS 240818Z 34015G20KT 09/M05 A2995 RMK A01 T00871045  RH  039%=      5-min Rain = 0
KPVS 240819Z 34017G24KT 09/M04 A2995 RMK A01 T00871044  RH  039%=      5-min Rain = 0
KPVS 240820Z 34016G22KT 09/M04 A2995 RMK A01 T00871044  RH  039%=      5-min Rain = 0
KPVS 240821Z 35014G19KT 09/M04 A2995 RMK A01 T00871044  RH  039%=      5-min Rain = 0
KPVS 240822Z 35017G24KT 09/M04 A2995 RMK A01 T00861044  RH  039%=      5-min Rain = 0
KPVS 240823Z 34016G27KT 09/M04 A2995 RMK A01 T00861044  RH  040%=      5-min Rain = 0
KPVS 240824Z 35019G24KT 09/M04 A2995 RMK A01 T00851044  RH  040%=      5-min Rain = 0
KPVS 240825Z 35018KT 09/M04 A2995 RMK A01 T00861043  RH  040%=      5-min Rain = 0
KPVS 240826Z 35020G29KT 09/M04 A2995 RMK A01 T00861043  RH  040%=      5-min Rain = 0
KPVS 240827Z 35019G29KT 09/M04 A2995 RMK A01 T00861043  RH  040%=      5-min Rain = 0
KPVS 240828Z 35017G23KT 09/M04 A2995 RMK A01 T00861043  RH  040%=      5-min Rain = 0
KPVS 240829Z 35015KT 09/M04 A2996 RMK A01 T00861043  RH  040%=      5-min Rain = 0
KPVS 240830Z 35015G21KT 09/M04 A2996 RMK A01 T00851043  RH  040%=      5-min Rain = 0
KPVS 240831Z 34015G23KT 09/M04 A2996 RMK A01 T00851043  RH  040%=      5-min Rain = 0
KPVS 240832Z 35015G20KT 08/M04 A2996 RMK A01 T00841043  RH  040%=      5-min Rain = 0
KPVS 240833Z 34014G19KT 08/M04 A2996 RMK A01 T00841043  RH  040%=      5-min Rain = 0
KPVS 240834Z 35015G21KT 08/M04 A2996 RMK A01 T00831043  RH  041%=      5-min Rain = 0
KPVS 240835Z 35013G18KT 08/M04 A2996 RMK A01 T00831043  RH  041%=      5-min Rain = 0
KPVS 240836Z 35016G22KT 08/M04 A2996 RMK A01 T00821043  RH  041%=      5-min Rain = 0
KPVS 240837Z 35015G21KT 08/M04 A2996 RMK A01 T00821043  RH  041%=      5-min Rain = 0
KPVS 240838Z 35015G22KT 08/M04 A2996 RMK A01 T00811043  RH  041%=      5-min Rain = 0
KPVS 240839Z 35016G22KT 08/M04 A2996 RMK A01 T00811043  RH  041%=      5-min Rain = 0
KPVS 240840Z 35015G24KT 08/M04 A2997 RMK A01 T00811042  RH  041%=      5-min Rain = 0
KPVS 240841Z 35016G23KT 08/M04 A2997 RMK A01 T00801043  RH  041%=      5-min Rain = 0
KPVS 240842Z 35017G22KT 08/M04 A2997 RMK A01 T00801043  RH  042%=      5-min Rain = 0
KPVS 240843Z 35018KT 08/M04 A2997 RMK A01 T00811043  RH  041%=      5-min Rain = 0
KPVS 240844Z 36015KT 08/M04 A2996 RMK A01 T00811043  RH  041%=      5-min Rain = 0
KPVS 240845Z 35017G24KT 08/M04 A2997 RMK A01 T00811043  RH  041%=      5-min Rain = 0
KPVS 240846Z 35014KT 08/M04 A2997 RMK A01 T00811043  RH  041%=      5-min Rain = 0
KPVS 240847Z 35016G25KT 08/M04 A2997 RMK A01 T00801043  RH  042%=      5-min Rain = 0
KPVS 240848Z 35016G23KT 08/M04 A2997 RMK A01 T00791043  RH  042%=      5-min Rain = 0
KPVS 240849Z 35013G19KT 08/M04 A2997 RMK A01 T00791043  RH  042%=      5-min Rain = 0
KPVS 240850Z 35013KT 08/M04 A2997 RMK A01 T00791043  RH  042%=      5-min Rain = 0
KPVS 240851Z 34012G17KT 08/M04 A2997 RMK A01 T00781043  RH  042%=      5-min Rain = 0
KPVS 240852Z 34012KT 08/M04 A2997 RMK A01 T00771043  RH  042%=      5-min Rain = 0
KPVS 240853Z 34013KT 08/M04 A2997 RMK A01 T00761043  RH  043%=      5-min Rain = 0
KPVS 240854Z 34013G19KT 08/M04 A2997 RMK A01 T00761042  RH  043%=      5-min Rain = 0
KPVS 240855Z 34013G20KT 08/M04 A2997 RMK A01 T00751042  RH  043%=      5-min Rain = 0
KPVS 240856Z 34013G18KT 07/M04 A2997 RMK A01 T00741042  RH  043%=      5-min Rain = 0
KPVS 240857Z 35014KT 07/M04 A2997 RMK A01 T00741042  RH  044%=      5-min Rain = 0
KPVS 240858Z 35018G25KT 07/M04 A2997 RMK A01 T00741042  RH  044%=      5-min Rain = 0
KPVS 240859Z 36018G24KT 07/M04 A2997 RMK A01 T00741042  RH  044%=      5-min Rain = 0
KPVS 240900Z 35017G24KT 08/M04 A2997 RMK A01 T00751042  RH  043%=      5-min Rain = 0
KPVS 240901Z 35018G24KT 08/M04 A2997 RMK A01 T00751042  RH  043%=      5-min Rain = 0
KPVS 240902Z 36019G27KT 08/M04 A2997 RMK A01 T00751042  RH  043%=      5-min Rain = 0
KPVS 240903Z 36016G24KT 08/M04 A2997 RMK A01 T00751042  RH  043%=      5-min Rain = 0
KPVS 240904Z 36016G21KT 07/M04 A2997 RMK A01 T00741042  RH  044%=      5-min Rain = 0
KPVS 240905Z 36019G26KT 07/M04 A2997 RMK A01 T00741042  RH  044%=      5-min Rain = 0
KPVS 240906Z 35016G22KT 07/M04 A2997 RMK A01 T00741042  RH  043%=      5-min Rain = 0
KPVS 240907Z 36015G20KT 07/M04 A2997 RMK A01 T00741042  RH  043%=      5-min Rain = 0
KPVS 240908Z 36014G19KT 07/M04 A2998 RMK A01 T00741042  RH  044%=      5-min Rain = 0
KPVS 240909Z 35015G23KT 07/M04 A2998 RMK A01 T00731042  RH  044%=      5-min Rain = 0
KPVS 240910Z 35017G22KT 07/M04 A2998 RMK A01 T00731042  RH  044%=      5-min Rain = 0
KPVS 240911Z 35014G20KT 07/M04 A2998 RMK A01 T00731042  RH  044%=      5-min Rain = 0
KPVS 240912Z 35012G17KT 07/M04 A2998 RMK A01 T00731043  RH  044%=      5-min Rain = 0
KPVS 240913Z 35013G18KT 07/M04 A2998 RMK A01 T00721043  RH  044%=      5-min Rain = 0
KPVS 240914Z 35015G23KT 07/M04 A2998 RMK A01 T00721043  RH  044%=      5-min Rain = 0
KPVS 240915Z 35016KT 07/M04 A2998 RMK A01 T00721043  RH  044%=      5-min Rain = 0
KPVS 240916Z 35016G25KT 07/M04 A2999 RMK A01 T00721043  RH  044%=      5-min Rain = 0
KPVS 240917Z 00018G26KT 07/M04 A2999 RMK A01 T00711043  RH  044%=      5-min Rain = 0
KPVS 240918Z 01020G25KT 07/M04 A2998 RMK A01 T00711043  RH  044%=      5-min Rain = 0
KPVS 240919Z 01021G27KT 07/M04 A2997 RMK A01 T00721043  RH  044%=      5-min Rain = 0
KPVS 240920Z 01018G24KT 07/M04 A2997 RMK A01 T00731044  RH  043%=      5-min Rain = 0
KPVS 240921Z 01015G21KT 07/M04 A2998 RMK A01 T00731044  RH  043%=      5-min Rain = 0
KPVS 240922Z 01016G22KT 07/M04 A2998 RMK A01 T00731044  RH  043%=      5-min Rain = 0
KPVS 240923Z 01021G27KT 07/M04 A2998 RMK A01 T00731044  RH  043%=      5-min Rain = 0
KPVS 240924Z 00018G25KT 07/M04 A2998 RMK A01 T00731044  RH  043%=      5-min Rain = 0
KPVS 240925Z 01016G22KT 07/M04 A2998 RMK A01 T00731044  RH  043%=      5-min Rain = 0
KPVS 240926Z 02015KT 07/M04 A2998 RMK A01 T00721044  RH  044%=      5-min Rain = 0
KPVS 240927Z 00013G18KT 07/M04 A2998 RMK A01 T00701044  RH  044%=      5-min Rain = 0
KPVS 240928Z 00012G18KT 07/M04 A2998 RMK A01 T00691044  RH  044%=      5-min Rain = 0
KPVS 240929Z 01017G24KT 07/M04 A2998 RMK A01 T00681044  RH  045%=      5-min Rain = 0
KPVS 240930Z 36017G24KT 07/M04 A2999 RMK A01 T00681044  RH  045%=      5-min Rain = 0
KPVS 240931Z 35018G23KT 07/M04 A2999 RMK A01 T00681044  RH  045%=      5-min Rain = 0
KPVS 240932Z 35012G17KT 07/M04 A2999 RMK A01 T00691044  RH  044%=      5-min Rain = 0
KPVS 240933Z 34012G17KT 07/M04 A2999 RMK A01 T00691044  RH  044%=      5-min Rain = 0
KPVS 240934Z 34013G18KT 07/M04 A2999 RMK A01 T00681044  RH  044%=      5-min Rain = 0
KPVS 240935Z 34012G17KT 07/M05 A2999 RMK A01 T00681045  RH  044%=      5-min Rain = 0
KPVS 240936Z 33012G17KT 07/M05 A30 RMK A01 T00681045  RH  044%=      5-min Rain = 0
KPVS 240937Z 33014G19KT 07/M05 A30 RMK A01 T00671045  RH  045%=      5-min Rain = 0
KPVS 240938Z 34014G22KT 07/M05 A30 RMK A01 T00671045  RH  045%=      5-min Rain = 0
KPVS 240939Z 34011G17KT 07/M05 A30 RMK A01 T00661045  RH  045%=      5-min Rain = 0
KPVS 240940Z 34016G22KT 07/M05 A30 RMK A01 T00661045  RH  045%=      5-min Rain = 0
KPVS 240941Z 35013KT 07/M05 A30 RMK A01 T00661045  RH  045%=      5-min Rain = 0
KPVS 240942Z 35014G19KT 07/M05 A30 RMK A01 T00661045  RH  045%=      5-min Rain = 0
KPVS 240943Z 35015G20KT 07/M05 A30 RMK A01 T00651045  RH  045%=      5-min Rain = 0
KPVS 240944Z 36015KT 07/M05 A2999 RMK A01 T00651046  RH  045%=      5-min Rain = 0
KPVS 240945Z 36017G23KT 07/M05 A2999 RMK A01 T00651046  RH  045%=      5-min Rain = 0
KPVS 240946Z 36016G25KT 07/M05 A2999 RMK A01 T00651046  RH  045%=      5-min Rain = 0
KPVS 240947Z 00014KT 07/M05 A2999 RMK A01 T00651046  RH  045%=      5-min Rain = 0
KPVS 240948Z 36017G23KT 07/M05 A2999 RMK A01 T00651046  RH  045%=      5-min Rain = 0
KPVS 240949Z 35015G20KT 07/M05 A2999 RMK A01 T00651046  RH  045%=      5-min Rain = 0
KPVS 240950Z 36016KT 07/M05 A2999 RMK A01 T00651046  RH  045%=      5-min Rain = 0
KPVS 240951Z 35014KT 07/M05 A30 RMK A01 T00651046  RH  045%=      5-min Rain = 0
KPVS 240952Z 35013KT 07/M05 A30 RMK A01 T00651046  RH  045%=      5-min Rain = 0
KPVS 240953Z 35012KT 06/M05 A30 RMK A01 T00641046  RH  045%=      5-min Rain = 0
KPVS 240954Z 35017KT 06/M05 A30 RMK A01 T00631046  RH  045%=      5-min Rain = 0
KPVS 240955Z 35014G22KT 06/M05 A30 RMK A01 T00641046  RH  045%=      5-min Rain = 0
KPVS 240956Z 35015G21KT 06/M05 A30 RMK A01 T00641046  RH  045%=      5-min Rain = 0
KPVS 240957Z 35012G18KT 06/M05 A30 RMK A01 T00631046  RH  045%=      5-min Rain = 0
KPVS 240958Z 35012G20KT 06/M05 A30 RMK A01 T00621047  RH  046%=      5-min Rain = 0
KPVS 240959Z 35009KT 06/M05 A30 RMK A01 T00621047  RH  046%=      5-min Rain = 0
KPVS 241000Z 35010G16KT 06/M05 A30 RMK A01 T00611047  RH  046%=      5-min Rain = 0
KPVS 241001Z 35013G18KT 06/M05 A30 RMK A01 T00601047  RH  046%=      5-min Rain = 0
KPVS 241002Z 34011KT 06/M05 A30 RMK A01 T00611047  RH  046%=      5-min Rain = 0
KPVS 241003Z 35013G18KT 06/M05 A3001 RMK A01 T00601047  RH  046%=      5-min Rain = 0
KPVS 241004Z 35014G19KT 06/M05 A3001 RMK A01 T00611047  RH  046%=      5-min Rain = 0
KPVS 241005Z 35016G22KT 06/M05 A3001 RMK A01 T00611048  RH  046%=      5-min Rain = 0
KPVS 241006Z 35014G20KT 06/M05 A3001 RMK A01 T00611048  RH  046%=      5-min Rain = 0
KPVS 241007Z 36013G18KT 06/M05 A3001 RMK A01 T00611048  RH  045%=      5-min Rain = 0
KPVS 241008Z 35011KT 06/M05 A3001 RMK A01 T00611048  RH  045%=      5-min Rain = 0
KPVS 241009Z 35012G17KT 06/M05 A3001 RMK A01 T00601049  RH  046%=      5-min Rain = 0
KPVS 241010Z 35013KT 06/M05 A3001 RMK A01 T00591048  RH  046%=      5-min Rain = 0
KPVS 241011Z 35013G21KT 06/M05 A3001 RMK A01 T00591048  RH  046%=      5-min Rain = 0
KPVS 241012Z 36012KT 06/M05 A3001 RMK A01 T00591048  RH  046%=      5-min Rain = 0
KPVS 241013Z 36013G18KT 06/M05 A3001 RMK A01 T00591049  RH  046%=      5-min Rain = 0
KPVS 241014Z 00013KT 06/M05 A3001 RMK A01 T00591049  RH  046%=      5-min Rain = 0
KPVS 241015Z 36013KT 06/M05 A3001 RMK A01 T00591049  RH  046%=      5-min Rain = 0
KPVS 241016Z 36014KT 06/M05 A3001 RMK A01 T00601049  RH  045%=      5-min Rain = 0
KPVS 241017Z 00015G21KT 06/M05 A3001 RMK A01 T00601050  RH  045%=      5-min Rain = 0
KPVS 241018Z 00013KT 06/M05 A3001 RMK A01 T00601050  RH  045%=      5-min Rain = 0
KPVS 241019Z 36013KT 06/M05 A3001 RMK A01 T00601050  RH  045%=      5-min Rain = 0
KPVS 241020Z 35012G17KT 06/M05 A3001 RMK A01 T00591050  RH  045%=      5-min Rain = 0
KPVS 241021Z 35011KT 06/M05 A3001 RMK A01 T00581050  RH  046%=      5-min Rain = 0
KPVS 241022Z 35012G19KT 06/M05 A3001 RMK A01 T00581050  RH  046%=      5-min Rain = 0
KPVS 241023Z 36014KT 06/M05 A3002 RMK A01 T00581050  RH  046%=      5-min Rain = 0
KPVS 241024Z 35013KT 06/M05 A3002 RMK A01 T00571050  RH  046%=      5-min Rain = 0
KPVS 241025Z 35010KT 06/M05 A3001 RMK A01 T00571050  RH  046%=      5-min Rain = 0
KPVS 241026Z 35009KT 06/M05 A3001 RMK A01 T00561050  RH  046%=      5-min Rain = 0
KPVS 241027Z 34008KT 06/M05 A3001 RMK A01 T00561051  RH  046%=      5-min Rain = 0
KPVS 241028Z 34010KT 05/M05 A3001 RMK A01 T00541051  RH  047%=      5-min Rain = 0
KPVS 241029Z 35012G18KT 05/M05 A3002 RMK A01 T00531051  RH  047%=      5-min Rain = 0
KPVS 241030Z 35014KT 05/M05 A3002 RMK A01 T00531051  RH  047%=      5-min Rain = 0
KPVS 241031Z 35014KT 05/M05 A3002 RMK A01 T00541051  RH  047%=      5-min Rain = 0
KPVS 241032Z 35013KT 06/M05 A3002 RMK A01 T00551051  RH  046%=      5-min Rain = 0
KPVS 241033Z 35011G17KT 06/M05 A3002 RMK A01 T00551051  RH  046%=      5-min Rain = 0
KPVS 241034Z 35010G15KT 06/M05 A3002 RMK A01 T00551051  RH  046%=      5-min Rain = 0
KPVS 241035Z 34009KT 06/M05 A3002 RMK A01 T00551052  RH  046%=      5-min Rain = 0
KPVS 241036Z 34010G15KT 06/M05 A3002 RMK A01 T00551052  RH  046%=      5-min Rain = 0
KPVS 241037Z 35013KT 05/M05 A3002 RMK A01 T00541052  RH  046%=      5-min Rain = 0
KPVS 241038Z 35011G17KT 05/M05 A3002 RMK A01 T00541052  RH  046%=      5-min Rain = 0
KPVS 241039Z 35012G17KT 05/M05 A3002 RMK A01 T00541052  RH  046%=      5-min Rain = 0
KPVS 241040Z 36012G21KT 05/M05 A3002 RMK A01 T00541052  RH  046%=      5-min Rain = 0
KPVS 241041Z 36011KT 05/M05 A3002 RMK A01 T00541052  RH  047%=      5-min Rain = 0
KPVS 241042Z 00014G21KT 05/M05 A3002 RMK A01 T00541052  RH  046%=      5-min Rain = 0
KPVS 241043Z 36013G19KT 05/M05 A3002 RMK A01 T00541052  RH  046%=      5-min Rain = 0
KPVS 241044Z 01014G20KT 05/M05 A3002 RMK A01 T00541052  RH  046%=      5-min Rain = 0
KPVS 241045Z 00011G18KT 05/M05 A3002 RMK A01 T00541052  RH  046%=      5-min Rain = 0
KPVS 241046Z 35014G19KT 05/M05 A3002 RMK A01 T00531053  RH  047%=      5-min Rain = 0
KPVS 241047Z 35016G22KT 05/M05 A3002 RMK A01 T00521052  RH  047%=      5-min Rain = 0
KPVS 241048Z 35013G20KT 05/M05 A3002 RMK A01 T00531052  RH  047%=      5-min Rain = 0
KPVS 241049Z 35013G18KT 05/M05 A3002 RMK A01 T00521052  RH  047%=      5-min Rain = 0
KPVS 241050Z 35014G19KT 05/M05 A3003 RMK A01 T00511053  RH  047%=      5-min Rain = 0
KPVS 241051Z 35012G17KT 05/M05 A3003 RMK A01 T00511053  RH  047%=      5-min Rain = 0
KPVS 241052Z 36014KT 05/M05 A3003 RMK A01 T00511053  RH  047%=      5-min Rain = 0
KPVS 241053Z 36012KT 05/M05 A3003 RMK A01 T00511052  RH  047%=      5-min Rain = 0
KPVS 241054Z 35011KT 05/M05 A3003 RMK A01 T00501053  RH  047%=      5-min Rain = 0
KPVS 241055Z 36014KT 05/M05 A3003 RMK A01 T00491053  RH  048%=      5-min Rain = 0
KPVS 241056Z 36014G19KT 05/M05 A3003 RMK A01 T00491053  RH  048%=      5-min Rain = 0
KPVS 241057Z 36011G16KT 05/M05 A3003 RMK A01 T00501053  RH  048%=      5-min Rain = 0
KPVS 241058Z 00014KT 05/M05 A3003 RMK A01 T00491053  RH  048%=      5-min Rain = 0
KPVS 241059Z 36016G22KT 05/M05 A3003 RMK A01 T00491053  RH  048%=      5-min Rain = 0
KPVS 241100Z 35013G19KT 05/M05 A3003 RMK A01 T00501053  RH  048%=      5-min Rain = 0
KPVS 241101Z 35014G20KT 05/M05 A3004 RMK A01 T00501053  RH  047%=      5-min Rain = 0
KPVS 241102Z 35014G20KT 05/M05 A3004 RMK A01 T00501053  RH  047%=      5-min Rain = 0
KPVS 241103Z 35014G19KT 05/M05 A3004 RMK A01 T00501053  RH  047%=      5-min Rain = 0
KPVS 241104Z 35016G22KT 05/M05 A3004 RMK A01 T00501053  RH  047%=      5-min Rain = 0
KPVS 241105Z 35012KT 05/M05 A3004 RMK A01 T00511053  RH  047%=      5-min Rain = 0
KPVS 241106Z 34010KT 05/M05 A3004 RMK A01 T00501053  RH  047%=      5-min Rain = 0
KPVS 241107Z 34010KT 05/M05 A3004 RMK A01 T00491053  RH  048%=      5-min Rain = 0
KPVS 241108Z 33009KT 05/M05 A3004 RMK A01 T00471054  RH  048%=      5-min Rain = 0
KPVS 241109Z 34011KT 05/M05 A3004 RMK A01 T00451054  RH  049%=      5-min Rain = 0
KPVS 241110Z 34011KT 04/M05 A3004 RMK A01 T00431053  RH  049%=      5-min Rain = 0
KPVS 241111Z 34011KT 04/M05 A3004 RMK A01 T00431053  RH  050%=      5-min Rain = 0
KPVS 241112Z 34011G16KT 04/M05 A3004 RMK A01 T00421053  RH  050%=      5-min Rain = 0
KPVS 241113Z 35012KT 04/M05 A3004 RMK A01 T00421053  RH  050%=      5-min Rain = 0
KPVS 241114Z 35012KT 04/M05 A3004 RMK A01 T00421053  RH  050%=      5-min Rain = 0
KPVS 241115Z 35012G19KT 04/M05 A3004 RMK A01 T00421053  RH  050%=      5-min Rain = 0
KPVS 241116Z 35013G18KT 04/M05 A3004 RMK A01 T00421053  RH  050%=      5-min Rain = 0
KPVS 241117Z 35015G20KT 04/M05 A3005 RMK A01 T00431053  RH  050%=      5-min Rain = 0
KPVS 241118Z 35011KT 04/M05 A3005 RMK A01 T00441052  RH  050%=      5-min Rain = 0
KPVS 241119Z 35014KT 04/M05 A3005 RMK A01 T00421053  RH  050%=      5-min Rain = 0
KPVS 241120Z 35011KT 04/M05 A3005 RMK A01 T00421053  RH  050%=      5-min Rain = 0
KPVS 241121Z 35011KT 04/M05 A3005 RMK A01 T00421053  RH  050%=      5-min Rain = 0
KPVS 241122Z 34012KT 04/M05 A3005 RMK A01 T00411053  RH  050%=      5-min Rain = 0
KPVS 241123Z 34011KT 04/M05 A3005 RMK A01 T00411053  RH  051%=      5-min Rain = 0
KPVS 241124Z 34011G16KT 04/M05 A3005 RMK A01 T00401053  RH  051%=      5-min Rain = 0
KPVS 241125Z 34011KT 04/M05 A3005 RMK A01 T00391053  RH  051%=      5-min Rain = 0
KPVS 241126Z 34010KT 04/M05 A3005 RMK A01 T00391053  RH  051%=      5-min Rain = 0
KPVS 241127Z 34011KT 04/M05 A3005 RMK A01 T00381053  RH  051%=      5-min Rain = 0
KPVS 241128Z 34012KT 04/M05 A3005 RMK A01 T00381053  RH  052%=      5-min Rain = 0
KPVS 241129Z 34011G19KT 04/M05 A3005 RMK A01 T00371053  RH  052%=      5-min Rain = 0
KPVS 241130Z 35012G17KT 04/M05 A3005 RMK A01 T00371053  RH  052%=      5-min Rain = 0
KPVS 241131Z 34012G17KT 04/M05 A3006 RMK A01 T00371053  RH  052%=      5-min Rain = 0
KPVS 241132Z 34011KT 04/M05 A3006 RMK A01 T00371053  RH  052%=      5-min Rain = 0
KPVS 241133Z 34012KT 04/M05 A3006 RMK A01 T00371053  RH  052%=      5-min Rain = 0
KPVS 241134Z 34011KT 04/M05 A3006 RMK A01 T00371053  RH  052%=      5-min Rain = 0
KPVS 241135Z 34010KT 04/M05 A3006 RMK A01 T00371053  RH  052%=      5-min Rain = 0
KPVS 241136Z 35012KT 04/M05 A3006 RMK A01 T00361053  RH  052%=      5-min Rain = 0
KPVS 241137Z 35011G16KT 04/M05 A3006 RMK A01 T00361052  RH  052%=      5-min Rain = 0
KPVS 241138Z 35011KT 04/M05 A3006 RMK A01 T00361052  RH  052%=      5-min Rain = 0
KPVS 241139Z 34012KT 04/M05 A3006 RMK A01 T00361052  RH  052%=      5-min Rain = 0
KPVS 241140Z 35011G16KT 04/M05 A3006 RMK A01 T00361052  RH  052%=      5-min Rain = 0
KPVS 241141Z 34012G17KT 04/M05 A3006 RMK A01 T00361052  RH  053%=      5-min Rain = 0
KPVS 241142Z 34013KT 04/M05 A3006 RMK A01 T00351052  RH  053%=      5-min Rain = 0
KPVS 241143Z 34013G18KT 04/M05 A3006 RMK A01 T00361052  RH  053%=      5-min Rain = 0
KPVS 241144Z 34013KT 04/M05 A3006 RMK A01 T00361052  RH  053%=      5-min Rain = 0
KPVS 241145Z 35013G19KT 04/M05 A3006 RMK A01 T00361052  RH  052%=      5-min Rain = 0
KPVS 241146Z 35012G18KT 04/M05 A3006 RMK A01 T00361052  RH  052%=      5-min Rain = 0
KPVS 241147Z 35013G19KT 04/M05 A3006 RMK A01 T00361052  RH  052%=      5-min Rain = 0
KPVS 241148Z 35014G23KT 04/M05 A3006 RMK A01 T00371051  RH  052%=      5-min Rain = 0
KPVS 241149Z 35018G24KT 04/M05 A3006 RMK A01 T00381051  RH  052%=      5-min Rain = 0
KPVS 241150Z 35013G18KT 04/M05 A3006 RMK A01 T00391051  RH  052%=      5-min Rain = 0
KPVS 241151Z 35014KT 04/M05 A3006 RMK A01 T00391051  RH  052%=      5-min Rain = 0
KPVS 241152Z 34015G21KT 04/M05 A3006 RMK A01 T00391051  RH  052%=      5-min Rain = 0
KPVS 241153Z 34013KT 04/M05 A3006 RMK A01 T00391051  RH  052%=      5-min Rain = 0
KPVS 241154Z 34014KT 04/M05 A3006 RMK A01 T00391052  RH  052%=      5-min Rain = 0
KPVS 241155Z 33011G18KT 04/M05 A3006 RMK A01 T00381052  RH  052%=      5-min Rain = 0
KPVS 241156Z 33013KT 04/M05 A3006 RMK A01 T00361052  RH  052%=      5-min Rain = 0
KPVS 241157Z 33012G19KT 04/M05 A3006 RMK A01 T00361052  RH  053%=      5-min Rain = 0
KPVS 241158Z 33013G20KT 04/M05 A3007 RMK A01 T00351052  RH  053%=      5-min Rain = 0
KPVS 241159Z 34013G21KT 04/M05 A3007 RMK A01 T00351051  RH  053%=      5-min Rain = 0
KPVS 241200Z 34011KT 04/M05 A3007 RMK A01 T00351051  RH  053%=      5-min Rain = 0
KPVS 241201Z 34010KT 03/M05 A3007 RMK A01 T00341051  RH  054%=      5-min Rain = 0
KPVS 241202Z 34012KT 03/M05 A3007 RMK A01 T00341051  RH  054%=      5-min Rain = 0
KPVS 241203Z 34013KT 03/M05 A3007 RMK A01 T00341051  RH  054%=      5-min Rain = 0
KPVS 241204Z 34013KT 03/M05 A3007 RMK A01 T00341051  RH  054%=      5-min Rain = 0
KPVS 241205Z 35013KT 03/M05 A3007 RMK A01 T00341051  RH  054%=      5-min Rain = 0
KPVS 241206Z 36015G21KT 03/M05 A3006 RMK A01 T00341051  RH  054%=      5-min Rain = 0
KPVS 241207Z 36015G20KT 04/M05 A3006 RMK A01 T00351050  RH  054%=      5-min Rain = 0
KPVS 241208Z 36017KT 04/M05 A3006 RMK A01 T00371050  RH  053%=      5-min Rain = 0
KPVS 241209Z 35013KT 04/M05 A3006 RMK A01 T00391050  RH  052%=      5-min Rain = 0
KPVS 241210Z 35015G21KT 04/M05 A3006 RMK A01 T00391050  RH  052%=      5-min Rain = 0
KPVS 241211Z 34014KT 04/M05 A3007 RMK A01 T00391051  RH  052%=      5-min Rain = 0
KPVS 241212Z 34012G18KT 04/M05 A3007 RMK A01 T00381051  RH  052%=      5-min Rain = 0
KPVS 241213Z 34013G19KT 04/M05 A3007 RMK A01 T00371051  RH  053%=      5-min Rain = 0
KPVS 241214Z 34011KT 04/M05 A3007 RMK A01 T00351051  RH  053%=      5-min Rain = 0
KPVS 241215Z 34013KT 03/M05 A3007 RMK A01 T00341051  RH  054%=      5-min Rain = 0
KPVS 241216Z 34009G14KT 03/M05 A3007 RMK A01 T00341051  RH  054%=      5-min Rain = 0
KPVS 241217Z 35013KT 03/M05 A3007 RMK A01 T00331051  RH  054%=      5-min Rain = 0
KPVS 241218Z 35009KT 03/M05 A3007 RMK A01 T00331051  RH  054%=      5-min Rain = 0
KPVS 241219Z 35011G16KT 03/M05 A3007 RMK A01 T00321051  RH  055%=      5-min Rain = 0
KPVS 241220Z 34012KT 03/M05 A3007 RMK A01 T00321050  RH  055%=      5-min Rain = 0
KPVS 241221Z 35012G18KT 03/M05 A3007 RMK A01 T00321050  RH  055%=      5-min Rain = 0
KPVS 241222Z 35011KT 03/M05 A3008 RMK A01 T00321050  RH  055%=      5-min Rain = 0
KPVS 241223Z 36012G17KT 03/M05 A3008 RMK A01 T00321050  RH  055%=      5-min Rain = 0
KPVS 241224Z 35013KT 03/M05 A3008 RMK A01 T00321050  RH  055%=      5-min Rain = 0
KPVS 241225Z 35011G16KT 03/M05 A3008 RMK A01 T00311050  RH  055%=      5-min Rain = 0
KPVS 241226Z 35012KT 03/M05 A3008 RMK A01 T00301050  RH  056%=      5-min Rain = 0
KPVS 241227Z 34011KT 03/M05 A3008 RMK A01 T00301050  RH  056%=      5-min Rain = 0
KPVS 241228Z 34012G17KT 03/M05 A3008 RMK A01 T00301050  RH  056%=      5-min Rain = 0
KPVS 241229Z 34013G19KT 03/M05 A3008 RMK A01 T00301050  RH  056%=      5-min Rain = 0
KPVS 241230Z 34013KT 03/M05 A3008 RMK A01 T00301049  RH  056%=      5-min Rain = 0
KPVS 241231Z 34014KT 03/M05 A3008 RMK A01 T00301049  RH  056%=      5-min Rain = 0
KPVS 241232Z 34012G17KT 03/M05 A3008 RMK A01 T00311049  RH  056%=      5-min Rain = 0
KPVS 241233Z 34010G16KT 03/M05 A3009 RMK A01 T00311049  RH  056%=      5-min Rain = 0
KPVS 241234Z 34010G15KT 03/M05 A3009 RMK A01 T00301049  RH  056%=      5-min Rain = 0
KPVS 241235Z 34011G16KT 03/M05 A3009 RMK A01 T00291049  RH  056%=      5-min Rain = 0
KPVS 241236Z 34011G16KT 03/M05 A3009 RMK A01 T00291049  RH  057%=      5-min Rain = 0
KPVS 241237Z 34013KT 03/M05 A3009 RMK A01 T00291049  RH  056%=      5-min Rain = 0
KPVS 241238Z 34012KT 03/M05 A3009 RMK A01 T00301049  RH  056%=      5-min Rain = 0
KPVS 241239Z 34011G16KT 03/M05 A3009 RMK A01 T00301049  RH  056%=      5-min Rain = 0
KPVS 241240Z 34011KT 03/M05 A3009 RMK A01 T00301049  RH  056%=      5-min Rain = 0
KPVS 241241Z 34013G18KT 03/M05 A3009 RMK A01 T00301049  RH  056%=      5-min Rain = 0
KPVS 241242Z 34015KT 03/M05 A3009 RMK A01 T00301049  RH  056%=      5-min Rain = 0
KPVS 241243Z 35013G18KT 03/M05 A3009 RMK A01 T00311049  RH  056%=      5-min Rain = 0
KPVS 241244Z 35015G21KT 03/M05 A3009 RMK A01 T00311049  RH  056%=      5-min Rain = 0
KPVS 241245Z 35014G21KT 03/M05 A3009 RMK A01 T00321049  RH  056%=      5-min Rain = 0
KPVS 241246Z 34013G19KT 03/M05 A3009 RMK A01 T00321049  RH  055%=      5-min Rain = 0
KPVS 241247Z 35013G19KT 03/M05 A3009 RMK A01 T00321049  RH  055%=      5-min Rain = 0
KPVS 241248Z 35015G20KT 03/M05 A3009 RMK A01 T00311049  RH  056%=      5-min Rain = 0
KPVS 241249Z 35014G19KT 03/M05 A3009 RMK A01 T00321049  RH  056%=      5-min Rain = 0
KPVS 241250Z 35014KT 03/M05 A3009 RMK A01 T00311049  RH  056%=      5-min Rain = 0
KPVS 241251Z 34011G16KT 03/M05 A3009 RMK A01 T00311049  RH  056%=      5-min Rain = 0
KPVS 241252Z 35011G16KT 03/M05 A3009 RMK A01 T00311049  RH  056%=      5-min Rain = 0
KPVS 241253Z 35012G17KT 03/M05 A3009 RMK A01 T00301049  RH  056%=      5-min Rain = 0
KPVS 241254Z 35014G23KT 03/M05 A3009 RMK A01 T00301049  RH  056%=      5-min Rain = 0
KPVS 241255Z 34014KT 03/M05 A3009 RMK A01 T00301049  RH  056%=      5-min Rain = 0
KPVS 241256Z 34013KT 03/M05 A3009 RMK A01 T00311049  RH  056%=      5-min Rain = 0
KPVS 241257Z 35014G19KT 03/M05 A3009 RMK A01 T00311049  RH  056%=      5-min Rain = 0
KPVS 241258Z 35013G18KT 03/M05 A3009 RMK A01 T00301049  RH  056%=      5-min Rain = 0
KPVS 241259Z 34013G18KT 03/M05 A3009 RMK A01 T00301049  RH  056%=      5-min Rain = 0
KPVS 241300Z 34016KT 03/M05 A3009 RMK A01 T00301049  RH  056%=      5-min Rain = 0
KPVS 241301Z 35014KT 03/M05 A3009 RMK A01 T00301049  RH  056%=      5-min Rain = 0
KPVS 241302Z 35014G20KT 03/M05 A3009 RMK A01 T00301049  RH  056%=      5-min Rain = 0
KPVS 241303Z 35015G21KT 03/M05 A3009 RMK A01 T00301049  RH  056%=      5-min Rain = 0
KPVS 241304Z 35013KT 03/M05 A3009 RMK A01 T00301049  RH  056%=      5-min Rain = 0
KPVS 241305Z 35014G19KT 03/M05 A3009 RMK A01 T00291049  RH  056%=      5-min Rain = 0
KPVS 241306Z 35014G19KT 03/M05 A3009 RMK A01 T00291049  RH  056%=      5-min Rain = 0
KPVS 241307Z 35014KT 03/M05 A3009 RMK A01 T00291049  RH  057%=      5-min Rain = 0
KPVS 241308Z 34014G19KT 03/M05 A3009 RMK A01 T00291049  RH  056%=      5-min Rain = 0
KPVS 241309Z 35013G19KT 03/M05 A3009 RMK A01 T00291050  RH  056%=      5-min Rain = 0
KPVS 241310Z 35014G20KT 03/M05 A301 RMK A01 T00291050  RH  056%=      5-min Rain = 0
KPVS 241311Z 35015G21KT 03/M05 A301 RMK A01 T00281050  RH  056%=      5-min Rain = 0
KPVS 241312Z 35014G21KT 03/M05 A3009 RMK A01 T00281050  RH  056%=      5-min Rain = 0
KPVS 241313Z 35013G21KT 03/M05 A3009 RMK A01 T00281050  RH  056%=      5-min Rain = 0
KPVS 241314Z 35013KT 03/M05 A3009 RMK A01 T00281050  RH  056%=      5-min Rain = 0
KPVS 241315Z 35015KT 03/M05 A301 RMK A01 T00281050  RH  057%=      5-min Rain = 0
KPVS 241316Z 35016G22KT 03/M05 A301 RMK A01 T00281050  RH  057%=      5-min Rain = 0
KPVS 241317Z 35014G21KT 03/M05 A301 RMK A01 T00281050  RH  057%=      5-min Rain = 0
KPVS 241318Z 35015G21KT 03/M05 A301 RMK A01 T00291050  RH  056%=      5-min Rain = 0
KPVS 241319Z 35014G19KT 03/M05 A301 RMK A01 T00291050  RH  056%=      5-min Rain = 0
KPVS 241320Z 34013KT 03/M05 A301 RMK A01 T00291050  RH  056%=      5-min Rain = 0
KPVS 241321Z 35012G18KT 03/M05 A301 RMK A01 T00281050  RH  056%=      5-min Rain = 0
KPVS 241322Z 35013G19KT 03/M05 A301 RMK A01 T00281050  RH  056%=      5-min Rain = 0
KPVS 241323Z 35013KT 03/M05 A301 RMK A01 T00281050  RH  056%=      5-min Rain = 0
KPVS 241324Z 35014G20KT 03/M05 A3011 RMK A01 T00281050  RH  056%=      5-min Rain = 0
KPVS 241325Z 35014G19KT 03/M05 A3011 RMK A01 T00281050  RH  056%=      5-min Rain = 0
KPVS 241326Z 35014G19KT 03/M05 A3011 RMK A01 T00281049  RH  057%=      5-min Rain = 0
KPVS 241327Z 35014G21KT 03/M05 A3011 RMK A01 T00281050  RH  057%=      5-min Rain = 0
KPVS 241328Z 35014KT 03/M05 A3011 RMK A01 T00271050  RH  057%=      5-min Rain = 0
KPVS 241329Z 35014KT 03/M05 A3011 RMK A01 T00261050  RH  057%=      5-min Rain = 0
KPVS 241330Z 35011KT 03/M05 A3011 RMK A01 T00251050  RH  058%=      5-min Rain = 0
KPVS 241331Z 34014KT 03/M05 A3011 RMK A01 T00251050  RH  058%=      5-min Rain = 0
KPVS 241332Z 35013KT 03/M05 A3011 RMK A01 T00251050  RH  058%=      5-min Rain = 0
KPVS 241333Z 35011G16KT 03/M05 A3012 RMK A01 T00251050  RH  058%=      5-min Rain = 0
KPVS 241334Z 34012G17KT 02/M05 A3012 RMK A01 T00241050  RH  058%=      5-min Rain = 0
KPVS 241335Z 34013G19KT 02/M05 A3012 RMK A01 T00241050  RH  058%=      5-min Rain = 0
KPVS 241336Z 35012KT 02/M05 A3012 RMK A01 T00241050  RH  058%=      5-min Rain = 0
KPVS 241337Z 35013KT 02/M05 A3012 RMK A01 T00241050  RH  058%=      5-min Rain = 0
KPVS 241338Z 35011G16KT 02/M05 A3012 RMK A01 T00231050  RH  058%=      5-min Rain = 0
KPVS 241339Z 35011KT 02/M05 A3012 RMK A01 T00231050  RH  059%=      5-min Rain = 0
KPVS 241340Z 35011KT 02/M05 A3012 RMK A01 T00231050  RH  059%=      5-min Rain = 0
KPVS 241341Z 35009KT 02/M05 A3012 RMK A01 T00231050  RH  059%=      5-min Rain = 0
KPVS 241342Z 35012G18KT 02/M05 A3013 RMK A01 T00231049  RH  059%=      5-min Rain = 0
KPVS 241343Z 35012KT 02/M05 A3013 RMK A01 T00231049  RH  059%=      5-min Rain = 0
KPVS 241344Z 35012KT 02/M05 A3013 RMK A01 T00241049  RH  059%=      5-min Rain = 0
KPVS 241345Z 34011KT 02/M05 A3013 RMK A01 T00241049  RH  059%=      5-min Rain = 0
KPVS 241346Z 34011G16KT 02/M05 A3013 RMK A01 T00241049  RH  059%=      5-min Rain = 0
KPVS 241347Z 34011KT 02/M05 A3013 RMK A01 T00241049  RH  059%=      5-min Rain = 0
KPVS 241348Z 34012KT 02/M05 A3013 RMK A01 T00241049  RH  059%=      5-min Rain = 0
KPVS 241349Z 34013G20KT 02/M05 A3013 RMK A01 T00241048  RH  059%=      5-min Rain = 0
KPVS 241350Z 34011G16KT 02/M05 A3013 RMK A01 T00241048  RH  059%=      5-min Rain = 0
KPVS 241351Z 35014G19KT 02/M05 A3013 RMK A01 T00241048  RH  059%=      5-min Rain = 0
KPVS 241352Z 35012G18KT 02/M05 A3013 RMK A01 T00241048  RH  059%=      5-min Rain = 0
KPVS 241353Z 35010G15KT 03/M05 A3013 RMK A01 T00251048  RH  059%=      5-min Rain = 0
KPVS 241354Z 35012KT 03/M05 A3013 RMK A01 T00251048  RH  059%=      5-min Rain = 0
KPVS 241355Z 35013KT 03/M05 A3013 RMK A01 T00251048  RH  059%=      5-min Rain = 0
KPVS 241356Z 35010KT 03/M05 A3013 RMK A01 T00251048  RH  059%=      5-min Rain = 0
KPVS 241357Z 35011G16KT 03/M05 A3014 RMK A01 T00251048  RH  059%=      5-min Rain = 0
KPVS 241358Z 35012G17KT 03/M05 A3014 RMK A01 T00251048  RH  059%=      5-min Rain = 0
KPVS 241359Z 35012G18KT 03/M05 A3014 RMK A01 T00251047  RH  059%=      5-min Rain = 0
KPVS 241400Z 35013KT 03/M05 A3014 RMK A01 T00251047  RH  059%=      5-min Rain = 0
KPVS 241401Z 35011KT 03/M05 A3014 RMK A01 T00251048  RH  059%=      5-min Rain = 0
KPVS 241402Z 35012G17KT 03/M05 A3014 RMK A01 T00251047  RH  059%=      5-min Rain = 0
KPVS 241403Z 35012G17KT 03/M05 A3014 RMK A01 T00251047  RH  059%=      5-min Rain = 0
KPVS 241404Z 34012G19KT 03/M05 A3014 RMK A01 T00261047  RH  059%=      5-min Rain = 0
KPVS 241405Z 35015KT 03/M05 A3014 RMK A01 T00261047  RH  059%=      5-min Rain = 0
KPVS 241406Z 35015KT 03/M05 A3014 RMK A01 T00261047  RH  059%=      5-min Rain = 0
KPVS 241407Z 35012G17KT 03/M05 A3014 RMK A01 T00261047  RH  059%=      5-min Rain = 0
KPVS 241408Z 35013KT 03/M05 A3014 RMK A01 T00261047  RH  059%=      5-min Rain = 0
KPVS 241409Z 35014KT 03/M05 A3014 RMK A01 T00261047  RH  059%=      5-min Rain = 0
KPVS 241410Z 35012G18KT 03/M05 A3014 RMK A01 T00261047  RH  059%=      5-min Rain = 0
KPVS 241411Z 35012KT 03/M05 A3015 RMK A01 T00261046  RH  059%=      5-min Rain = 0
KPVS 241412Z 34011KT 03/M05 A3015 RMK A01 T00261046  RH  059%=      5-min Rain = 0
KPVS 241413Z 34014G19KT 03/M05 A3015 RMK A01 T00271046  RH  059%=      5-min Rain = 0
KPVS 241414Z 34013KT 03/M05 A3015 RMK A01 T00271047  RH  058%=      5-min Rain = 0
KPVS 241415Z 35014KT 03/M05 A3015 RMK A01 T00271046  RH  058%=      5-min Rain = 0
KPVS 241416Z 35011KT 03/M05 A3015 RMK A01 T00271046  RH  059%=      5-min Rain = 0
KPVS 241417Z 34015KT 03/M05 A3015 RMK A01 T00271046  RH  059%=      5-min Rain = 0
KPVS 241418Z 35011G17KT 03/M05 A3015 RMK A01 T00271047  RH  058%=      5-min Rain = 0
KPVS 241419Z 35012KT 03/M05 A3015 RMK A01 T00281046  RH  058%=      5-min Rain = 0
KPVS 241420Z 35012KT 03/M05 A3015 RMK A01 T00281046  RH  058%=      5-min Rain = 0
KPVS 241421Z 35015KT 03/M05 A3015 RMK A01 T00281047  RH  058%=      5-min Rain = 0
KPVS 241422Z 36015G20KT 03/M05 A3015 RMK A01 T00291047  RH  057%=      5-min Rain = 0
KPVS 241423Z 35013KT 03/M05 A3015 RMK A01 T00291047  RH  057%=      5-min Rain = 0
KPVS 241424Z 36014G19KT 03/M05 A3015 RMK A01 T00301047  RH  057%=      5-min Rain = 0
KPVS 241425Z 36015KT 03/M05 A3015 RMK A01 T00301047  RH  057%=      5-min Rain = 0
KPVS 241426Z 36014KT 03/M05 A3015 RMK A01 T00301048  RH  057%=      5-min Rain = 0
KPVS 241427Z 36014G21KT 03/M05 A3016 RMK A01 T00301047  RH  057%=      5-min Rain = 0
KPVS 241428Z 36014KT 03/M05 A3016 RMK A01 T00311047  RH  056%=      5-min Rain = 0
KPVS 241429Z 36015G20KT 03/M05 A3016 RMK A01 T00311047  RH  056%=      5-min Rain = 0
KPVS 241430Z 36016KT 03/M05 A3016 RMK A01 T00321048  RH  056%=      5-min Rain = 0
KPVS 241431Z 36016G24KT 03/M05 A3016 RMK A01 T00321048  RH  056%=      5-min Rain = 0
KPVS 241432Z 01014G20KT 03/M05 A3016 RMK A01 T00321048  RH  056%=      5-min Rain = 0
KPVS 241433Z 35012G17KT 03/M05 A3016 RMK A01 T00321047  RH  056%=      5-min Rain = 0
KPVS 241434Z 35015G20KT 03/M05 A3016 RMK A01 T00321047  RH  056%=      5-min Rain = 0
KPVS 241435Z 35015G22KT 03/M05 A3016 RMK A01 T00331048  RH  056%=      5-min Rain = 0
KPVS 241436Z 35016KT 03/M05 A3016 RMK A01 T00331048  RH  055%=      5-min Rain = 0
KPVS 241437Z 36014G19KT 03/M05 A3016 RMK A01 T00321048  RH  056%=      5-min Rain = 0
KPVS 241438Z 35019KT 03/M05 A3016 RMK A01 T00331048  RH  055%=      5-min Rain = 0
KPVS 241439Z 00017G24KT 03/M05 A3016 RMK A01 T00331048  RH  055%=      5-min Rain = 0
KPVS 241440Z 35014G20KT 03/M05 A3016 RMK A01 T00331048  RH  055%=      5-min Rain = 0
KPVS 241441Z 36015G21KT 03/M05 A3017 RMK A01 T00341047  RH  055%=      5-min Rain = 0
KPVS 241442Z 35017G22KT 04/M05 A3017 RMK A01 T00351048  RH  055%=      5-min Rain = 0
KPVS 241443Z 36017G22KT 03/M05 A3017 RMK A01 T00341049  RH  054%=      5-min Rain = 0
KPVS 241444Z 35016G21KT 03/M05 A3017 RMK A01 T00341049  RH  054%=      5-min Rain = 0
KPVS 241445Z 35016KT 03/M05 A3017 RMK A01 T00341048  RH  055%=      5-min Rain = 0
KPVS 241446Z 36018G24KT 04/M05 A3017 RMK A01 T00351049  RH  054%=      5-min Rain = 0
KPVS 241447Z 00020G25KT 04/M05 A3017 RMK A01 T00351049  RH  054%=      5-min Rain = 0
KPVS 241448Z 00018G24KT 04/M05 A3017 RMK A01 T00351049  RH  054%=      5-min Rain = 0
KPVS 241449Z 00015G20KT 04/M05 A3017 RMK A01 T00351049  RH  054%=      5-min Rain = 0
KPVS 241450Z 00015G20KT 04/M05 A3017 RMK A01 T00361049  RH  054%=      5-min Rain = 0
KPVS 241451Z 35013KT 04/M05 A3017 RMK A01 T00361049  RH  054%=      5-min Rain = 0
KPVS 241452Z 35018G24KT 04/M05 A3017 RMK A01 T00381049  RH  053%=      5-min Rain = 0
KPVS 241453Z 35017G22KT 04/M05 A3017 RMK A01 T00381050  RH  053%=      5-min Rain = 0
KPVS 241454Z 35018G23KT 04/M05 A3017 RMK A01 T00371051  RH  053%=      5-min Rain = 0
KPVS 241455Z 00016G22KT 04/M05 A3017 RMK A01 T00371051  RH  053%=      5-min Rain = 0
KPVS 241456Z 35014G22KT 04/M05 A3017 RMK A01 T00371050  RH  053%=      5-min Rain = 0
KPVS 241457Z 35017G23KT 04/M05 A3017 RMK A01 T00381050  RH  053%=      5-min Rain = 0
KPVS 241458Z 35014KT 04/M05 A3018 RMK A01 T00381051  RH  052%=      5-min Rain = 0
KPVS 241459Z 35017G24KT 04/M05 A3018 RMK A01 T00391050  RH  053%=      5-min Rain = 0
KPVS 241500Z 36017G22KT 04/M05 A3018 RMK A01 T00391051  RH  052%=      5-min Rain = 0
KPVS 241501Z 36020G25KT 04/M05 A3018 RMK A01 T00391051  RH  052%=      5-min Rain = 0
KPVS 241502Z 00019KT 04/M05 A3018 RMK A01 T00381052  RH  052%=      5-min Rain = 0
KPVS 241503Z 00015KT 04/M05 A3018 RMK A01 T00391050  RH  052%=      5-min Rain = 0
KPVS 241504Z 36014G21KT 04/M05 A3018 RMK A01 T00401050  RH  052%=      5-min Rain = 0
KPVS 241505Z 34015G20KT 04/M05 A3018 RMK A01 T00411049  RH  052%=      5-min Rain = 0
KPVS 241506Z 36013KT 04/M05 A3018 RMK A01 T00411049  RH  052%=      5-min Rain = 0
KPVS 241507Z 36016G21KT 04/M05 A3018 RMK A01 T00421049  RH  052%=      5-min Rain = 0
KPVS 241508Z 01015G20KT 04/M05 A3018 RMK A01 T00421050  RH  051%=      5-min Rain = 0
KPVS 241509Z 36012G17KT 04/M05 A3018 RMK A01 T00411050  RH  051%=      5-min Rain = 0
KPVS 241510Z 00017G23KT 04/M05 A3018 RMK A01 T00421049  RH  051%=      5-min Rain = 0
KPVS 241511Z 01018G23KT 04/M05 A3018 RMK A01 T00421051  RH  051%=      5-min Rain = 0
KPVS 241512Z 01017G24KT 04/M05 A3018 RMK A01 T00421051  RH  051%=      5-min Rain = 0
KPVS 241513Z 35016G21KT 04/M05 A3018 RMK A01 T00421050  RH  051%=      5-min Rain = 0
KPVS 241514Z 00016G23KT 04/M05 A3018 RMK A01 T00431051  RH  050%=      5-min Rain = 0
KPVS 241515Z 36017G22KT 04/M05 A3018 RMK A01 T00431051  RH  050%=      5-min Rain = 0
KPVS 241516Z 36016KT 04/M05 A3018 RMK A01 T00431051  RH  050%=      5-min Rain = 0
KPVS 241517Z 36014G24KT 04/M05 A3019 RMK A01 T00431051  RH  050%=      5-min Rain = 0
KPVS 241518Z 35017G23KT 04/M05 A3019 RMK A01 T00441050  RH  050%=      5-min Rain = 0
KPVS 241519Z 35015G21KT 05/M05 A3019 RMK A01 T00451050  RH  050%=      5-min Rain = 0
KPVS 241520Z 35015G20KT 05/M05 A3019 RMK A01 T00451051  RH  050%=      5-min Rain = 0
KPVS 241521Z 36019G26KT 05/M05 A3019 RMK A01 T00451051  RH  049%=      5-min Rain = 0
KPVS 241522Z 01016G23KT 05/M05 A3019 RMK A01 T00461052  RH  049%=      5-min Rain = 0
KPVS 241523Z 00015KT 05/M05 A3019 RMK A01 T00481050  RH  049%=      5-min Rain = 0
KPVS 241524Z 00018KT 05/M05 A3019 RMK A01 T00491052  RH  048%=      5-min Rain = 0
KPVS 241525Z 00018KT 05/M05 A3019 RMK A01 T00481053  RH  048%=      5-min Rain = 0
KPVS 241526Z 36019KT 05/M05 A3019 RMK A01 T00481053  RH  048%=      5-min Rain = 0
KPVS 241527Z 00018G23KT 05/M05 A3019 RMK A01 T00481054  RH  048%=      5-min Rain = 0
KPVS 241528Z 00018G27KT 05/M05 A3019 RMK A01 T00481053  RH  048%=      5-min Rain = 0
KPVS 241529Z 00019G25KT 05/M05 A3019 RMK A01 T00491054  RH  047%=      5-min Rain = 0
KPVS 241530Z 00019KT 05/M05 A3019 RMK A01 T00481054  RH  048%=      5-min Rain = 0
KPVS 241531Z 01018G26KT 05/M05 A3019 RMK A01 T00491053  RH  048%=      5-min Rain = 0
KPVS 241532Z 36017G26KT 05/M05 A3019 RMK A01 T00501053  RH  047%=      5-min Rain = 0
KPVS 241533Z 00015G20KT 05/M05 A3019 RMK A01 T00501053  RH  047%=      5-min Rain = 0
KPVS 241534Z 36017G22KT 05/M05 A3019 RMK A01 T00511051  RH  048%=      5-min Rain = 0
KPVS 241535Z 01016G27KT 05/M05 A3019 RMK A01 T00521052  RH  047%=      5-min Rain = 0
KPVS 241536Z 01019G29KT 05/M05 A3019 RMK A01 T00531052  RH  047%=      5-min Rain = 0
KPVS 241537Z 01018G25KT 05/M05 A3019 RMK A01 T00521052  RH  047%=      5-min Rain = 0
KPVS 241538Z 01018G25KT 05/M05 A3019 RMK A01 T00521053  RH  047%=      5-min Rain = 0
KPVS 241539Z 01015G20KT 05/M05 A3019 RMK A01 T00521053  RH  047%=      5-min Rain = 0
KPVS 241540Z 00014KT 05/M05 A3019 RMK A01 T00531050  RH  047%=      5-min Rain = 0
KPVS 241541Z 01015KT 06/M05 A3019 RMK A01 T00551050  RH  047%=      5-min Rain = 0
KPVS 241542Z 00012G17KT 06/M05 A3019 RMK A01 T00561050  RH  046%=      5-min Rain = 0
KPVS 241543Z 35014G22KT 06/M05 A3019 RMK A01 T00581048  RH  046%=      5-min Rain = 0
KPVS 241544Z 00017G23KT 06/M05 A3019 RMK A01 T00571052  RH  045%=      5-min Rain = 0
KPVS 241545Z 00019G25KT 06/M05 A3019 RMK A01 T00561052  RH  046%=      5-min Rain = 0
KPVS 241546Z 36018G25KT 06/M05 A3019 RMK A01 T00551053  RH  046%=      5-min Rain = 0
KPVS 241547Z 35018KT 05/M05 A3019 RMK A01 T00541053  RH  046%=      5-min Rain = 0
KPVS 241548Z 00016G21KT 05/M05 A3019 RMK A01 T00541052  RH  046%=      5-min Rain = 0
KPVS 241549Z 36020G26KT 06/M05 A3019 RMK A01 T00551052  RH  046%=      5-min Rain = 0
KPVS 241550Z 00017G24KT 06/M05 A3019 RMK A01 T00551053  RH  046%=      5-min Rain = 0
KPVS 241551Z 01015G21KT 06/M05 A3019 RMK A01 T00571049  RH  046%=      5-min Rain = 0
KPVS 241552Z 00018G26KT 06/M05 A3019 RMK A01 T00581051  RH  046%=      5-min Rain = 0
KPVS 241553Z 00020G26KT 06/M05 A3019 RMK A01 T00571052  RH  045%=      5-min Rain = 0
KPVS 241554Z 36020G26KT 06/M05 A3019 RMK A01 T00551053  RH  046%=      5-min Rain = 0
KPVS 241555Z 36017G27KT 05/M05 A3019 RMK A01 T00541053  RH  046%=      5-min Rain = 0
KPVS 241556Z 00019G25KT 05/M05 A3019 RMK A01 T00541052  RH  046%=      5-min Rain = 0
KPVS 241557Z 01018G23KT 06/M05 A3019 RMK A01 T00561051  RH  046%=      5-min Rain = 0
KPVS 241558Z 00018G26KT 06/M05 A3019 RMK A01 T00561051  RH  046%=      5-min Rain = 0
KPVS 241559Z 00018KT 06/M05 A3019 RMK A01 T00561051  RH  046%=      5-min Rain = 0
KPVS 241600Z 00018G25KT 06/M05 A3019 RMK A01 T00581049  RH  046%=      5-min Rain = 0
KPVS 241601Z 01016KT 06/M05 A3019 RMK A01 T00591050  RH  045%=      5-min Rain = 0
KPVS 241602Z 00018G24KT 06/M05 A3019 RMK A01 T00591051  RH  045%=      5-min Rain = 0
KPVS 241603Z 01019G26KT 06/M05 A3019 RMK A01 T00581052  RH  045%=      5-min Rain = 0
KPVS 241604Z 01018G26KT 06/M05 A3019 RMK A01 T00571052  RH  046%=      5-min Rain = 0
KPVS 241605Z 01019G26KT 06/M05 A3019 RMK A01 T00571051  RH  046%=      5-min Rain = 0
KPVS 241606Z 01015G22KT 06/M05 A3019 RMK A01 T00571052  RH  046%=      5-min Rain = 0
KPVS 241607Z 01015G20KT 06/M05 A3019 RMK A01 T00581050  RH  046%=      5-min Rain = 0
KPVS 241608Z 02016KT 06/M05 A3019 RMK A01 T00591049  RH  046%=      5-min Rain = 0
KPVS 241609Z 02015KT 06/M05 A3019 RMK A01 T00601050  RH  045%=      5-min Rain = 0
KPVS 241610Z 00018KT 06/M05 A3019 RMK A01 T00601050  RH  045%=      5-min Rain = 0
KPVS 241611Z 01015KT 06/M05 A3019 RMK A01 T00611050  RH  045%=      5-min Rain = 0
KPVS 241612Z 02017G22KT 06/M05 A3019 RMK A01 T00611050  RH  045%=      5-min Rain = 0
KPVS 241613Z 02015G21KT 06/M05 A3019 RMK A01 T00611049  RH  045%=      5-min Rain = 0
KPVS 241614Z 01011KT 06/M05 A3019 RMK A01 T00631048  RH  045%=      5-min Rain = 0
KPVS 241615Z 01013G20KT 07/M05 A3019 RMK A01 T00651046  RH  045%=      5-min Rain = 0
KPVS 241616Z 01016G21KT 07/M05 A3019 RMK A01 T00651049  RH  044%=      5-min Rain = 0
KPVS 241617Z 01019G24KT 06/M05 A3019 RMK A01 T00641049  RH  044%=      5-min Rain = 0
KPVS 241618Z 01016G21KT 06/M05 A3019 RMK A01 T00621051  RH  044%=      5-min Rain = 0
KPVS 241619Z 01012G20KT 06/M05 A3019 RMK A01 T00611051  RH  045%=      5-min Rain = 0
KPVS 241620Z 00013G18KT 06/M05 A3019 RMK A01 T00641045  RH  046%=      5-min Rain = 0
KPVS 241621Z 00017G22KT 07/M05 A3019 RMK A01 T00681046  RH  044%=      5-min Rain = 0
KPVS 241622Z 36017KT 07/M05 A3019 RMK A01 T00651050  RH  044%=      5-min Rain = 0
KPVS 241623Z 01015KT 06/M05 A3019 RMK A01 T00631049  RH  044%=      5-min Rain = 0
KPVS 241624Z 02014KT 06/M05 A3019 RMK A01 T00641049  RH  044%=      5-min Rain = 0
KPVS 241625Z 01013KT 06/M05 A3019 RMK A01 T00641048  RH  044%=      5-min Rain = 0
KPVS 241626Z 00013KT 07/M05 A302 RMK A01 T00651048  RH  044%=      5-min Rain = 0
KPVS 241627Z 00016G21KT 07/M05 A302 RMK A01 T00671047  RH  044%=      5-min Rain = 0
KPVS 241628Z 00013KT 07/M05 A302 RMK A01 T00671048  RH  044%=      5-min Rain = 0
KPVS 241629Z 02015G21KT 07/M05 A302 RMK A01 T00671047  RH  044%=      5-min Rain = 0
KPVS 241630Z 03015G20KT 07/M05 A302 RMK A01 T00671048  RH  043%=      5-min Rain = 0
KPVS 241631Z 03013G21KT 07/M05 A3019 RMK A01 T00671048  RH  044%=      5-min Rain = 0
KPVS 241632Z 03017G23KT 07/M05 A3019 RMK A01 T00671048  RH  043%=      5-min Rain = 0
KPVS 241633Z 02013KT 07/M05 A3019 RMK A01 T00681047  RH  044%=      5-min Rain = 0
KPVS 241634Z 02014G20KT 07/M05 A3019 RMK A01 T00691047  RH  043%=      5-min Rain = 0
KPVS 241635Z 02012KT 07/M05 A3019 RMK A01 T00701046  RH  043%=      5-min Rain = 0
KPVS 241636Z 02013G19KT 07/M05 A3019 RMK A01 T00701046  RH  043%=      5-min Rain = 0
KPVS 241637Z 02014G20KT 07/M05 A3019 RMK A01 T00701048  RH  043%=      5-min Rain = 0
KPVS 241638Z 03014G19KT 07/M05 A3019 RMK A01 T00701046  RH  043%=      5-min Rain = 0
KPVS 241639Z 02015G20KT 07/M05 A3019 RMK A01 T00711048  RH  042%=      5-min Rain = 0
KPVS 241640Z 02014KT 07/M05 A3019 RMK A01 T00701049  RH  043%=      5-min Rain = 0
KPVS 241641Z 02014KT 07/M05 A3019 RMK A01 T00711046  RH  043%=      5-min Rain = 0
KPVS 241642Z 02017KT 07/M05 A302 RMK A01 T00711048  RH  043%=      5-min Rain = 0
KPVS 241643Z 02012G17KT 07/M05 A3019 RMK A01 T00701047  RH  043%=      5-min Rain = 0
KPVS 241644Z 03010KT 07/M04 A3019 RMK A01 T00741043  RH  043%=      5-min Rain = 0
KPVS 241645Z 02009G16KT 07/M05 A3019 RMK A01 T00741045  RH  043%=      5-min Rain = 0
KPVS 241646Z 03013KT 08/M04 A3019 RMK A01 T00761043  RH  043%=      5-min Rain = 0
KPVS 241647Z 02010KT 08/M05 A3019 RMK A01 T00771045  RH  042%=      5-min Rain = 0
KPVS 241648Z 00012G17KT 08/M04 A3019 RMK A01 T00781043  RH  042%=      5-min Rain = 0
KPVS 241649Z 03011G16KT 08/M04 A3019 RMK A01 T00791043  RH  042%=      5-min Rain = 0
KPVS 241650Z 02013KT 08/M05 A3019 RMK A01 T00771047  RH  041%=      5-min Rain = 0
KPVS 241651Z 02011KT 08/M05 A3019 RMK A01 T00751047  RH  042%=      5-min Rain = 0
KPVS 241652Z 03012KT 08/M04 A3019 RMK A01 T00781042  RH  042%=      5-min Rain = 0
KPVS 241653Z 03013KT 08/M04 A3019 RMK A01 T00791044  RH  041%=      5-min Rain = 0
KPVS 241654Z 01012KT 08/M04 A3019 RMK A01 T00801043  RH  042%=      5-min Rain = 0
KPVS 241655Z 02011KT 08/M04 A3019 RMK A01 T00811043  RH  041%=      5-min Rain = 0
KPVS 241656Z 02011KT 08/M04 A3019 RMK A01 T00811042  RH  041%=      5-min Rain = 0
KPVS 241657Z 01015G21KT 08/M04 A3019 RMK A01 T00821044  RH  040%=      5-min Rain = 0
KPVS 241658Z 36014KT 08/M05 A3019 RMK A01 T00801046  RH  040%=      5-min Rain = 0
KPVS 241659Z 01012KT 08/M04 A3019 RMK A01 T00801044  RH  041%=      5-min Rain = 0
KPVS 241700Z 02011KT 08/M04 A3019 RMK A01 T00841042  RH  041%=      5-min Rain = 0
KPVS 241701Z 03012KT 08/M04 A3019 RMK A01 T00841044  RH  040%=      5-min Rain = 0
KPVS 241702Z 02012KT 08/M04 A3019 RMK A01 T00831044  RH  040%=      5-min Rain = 0
KPVS 241703Z 01010KT 08/M04 A3019 RMK A01 T00841043  RH  041%=      5-min Rain = 0
KPVS 241704Z 01012G19KT 09/M04 A302 RMK A01 T00871040  RH  041%=      5-min Rain = 0
KPVS 241705Z 02013KT 08/M05 A302 RMK A01 T00841047  RH  039%=      5-min Rain = 0
KPVS 241706Z 01011KT 08/M05 A302 RMK A01 T00811047  RH  040%=      5-min Rain = 0
KPVS 241707Z 02011G16KT 08/M05 A3019 RMK A01 T00811045  RH  041%=      5-min Rain = 0
KPVS 241708Z 02014G20KT 08/M05 A3019 RMK A01 T00831045  RH  040%=      5-min Rain = 0
KPVS 241709Z 02012KT 08/M05 A3019 RMK A01 T00841046  RH  040%=      5-min Rain = 0
KPVS 241710Z 02013KT 09/M04 A3019 RMK A01 T00871044  RH  039%=      5-min Rain = 0
KPVS 241711Z 02012KT 08/M05 A3019 RMK A01 T00841049  RH  039%=      5-min Rain = 0
KPVS 241712Z 01012KT 09/M04 A3019 RMK A01 T00851044  RH  040%=      5-min Rain = 0
KPVS 241713Z 01012G17KT 09/M04 A3019 RMK A01 T00871043  RH  040%=      5-min Rain = 0
KPVS 241714Z 02011KT 09/M05 A3019 RMK A01 T00881047  RH  038%=      5-min Rain = 0
KPVS 241715Z 03011KT 08/M05 A3019 RMK A01 T00831048  RH  039%=      5-min Rain = 0
KPVS 241716Z 03013KT 09/M05 A3019 RMK A01 T00851045  RH  039%=      5-min Rain = 0
KPVS 241717Z 04012KT 09/M05 A3019 RMK A01 T00861047  RH  039%=      5-min Rain = 0
KPVS 241718Z 03012KT 09/M05 A3019 RMK A01 T00861047  RH  039%=      5-min Rain = 0
KPVS 241719Z 03011KT 09/M05 A3019 RMK A01 T00871047  RH  038%=      5-min Rain = 0
KPVS 241720Z 02014G20KT 09/M05 A3019 RMK A01 T00881047  RH  038%=      5-min Rain = 0
KPVS 241721Z 03015KT 09/M05 A3019 RMK A01 T00901049  RH  037%=      5-min Rain = 0
KPVS 241722Z 04014KT 09/M05 A3019 RMK A01 T00881051  RH  037%=      5-min Rain = 0
KPVS 241723Z 03016KT 09/M05 A3019 RMK A01 T00881049  RH  038%=      5-min Rain = 0
KPVS 241724Z 02012KT 09/M05 A3019 RMK A01 T00861053  RH  037%=      5-min Rain = 0
KPVS 241725Z 02012KT 09/M05 A3019 RMK A01 T00851051  RH  038%=      5-min Rain = 0
KPVS 241726Z 02013KT 09/M05 A3019 RMK A01 T00901047  RH  038%=      5-min Rain = 0
KPVS 241727Z 03013G18KT 09/M05 A3019 RMK A01 T00891050  RH  037%=      5-min Rain = 0
KPVS 241728Z 04015KT 09/M05 A3019 RMK A01 T00901048  RH  037%=      5-min Rain = 0
KPVS 241729Z 04015KT 09/M05 A3019 RMK A01 T00901050  RH  037%=      5-min Rain = 0
KPVS 241730Z 05011KT 09/M05 A3019 RMK A01 T00911048  RH  037%=      5-min Rain = 0
KPVS 241731Z 05010G16KT 09/M05 A3019 RMK A01 T00921048  RH  037%=      5-min Rain = 0
KPVS 241732Z 03013KT 09/M05 A3019 RMK A01 T00921048  RH  037%=      5-min Rain = 0
KPVS 241733Z 03015KT 09/M05 A3019 RMK A01 T00921047  RH  037%=      5-min Rain = 0
KPVS 241734Z 03014KT 09/M05 A3019 RMK A01 T00921049  RH  037%=      5-min Rain = 0
KPVS 241735Z 04014G19KT 09/M05 A3019 RMK A01 T00901051  RH  036%=      5-min Rain = 0
KPVS 241736Z 02014G20KT 09/M05 A3019 RMK A01 T00901050  RH  037%=      5-min Rain = 0
KPVS 241737Z 01012KT 09/M05 A3019 RMK A01 T00911051  RH  036%=      5-min Rain = 0
KPVS 241738Z 03011KT 09/M05 A3019 RMK A01 T00901049  RH  037%=      5-min Rain = 0
KPVS 241739Z 03010KT 09/M04 A3019 RMK A01 T00931044  RH  038%=      5-min Rain = 0
KPVS 241740Z 03012KT 10/M04 A3019 RMK A01 T00961043  RH  037%=      5-min Rain = 0
KPVS 241741Z 02012KT 10/M05 A3019 RMK A01 T00961046  RH  037%=      5-min Rain = 0
KPVS 241742Z 03012G17KT 10/M04 A3019 RMK A01 T00981043  RH  037%=      5-min Rain = 0
KPVS 241743Z 04010KT 10/M04 A3019 RMK A01 T01001044  RH  036%=      5-min Rain = 0
KPVS 241744Z 04009KT 10/M04 A3019 RMK A01 T01011042  RH  036%=      5-min Rain = 0
KPVS 241745Z 04011KT 10/M05 A3019 RMK A01 T00991049  RH  035%=      5-min Rain = 0
KPVS 241746Z 04010KT 10/M05 A3019 RMK A01 T00951052  RH  035%=      5-min Rain = 0
KPVS 241747Z 03009KT 09/M05 A3019 RMK A01 T00921049  RH  037%=      5-min Rain = 0
KPVS 241748Z 02013KT 10/M04 A3019 RMK A01 T00961044  RH  037%=      5-min Rain = 0
KPVS 241749Z 03011KT 10/M05 A3019 RMK A01 T00961046  RH  036%=      5-min Rain = 0
KPVS 241750Z 03009KT 09/M05 A3019 RMK A01 T00941048  RH  036%=      5-min Rain = 0
KPVS 241751Z 02009G14KT 09/M05 A3019 RMK A01 T00921048  RH  037%=      5-min Rain = 0
KPVS 241752Z 03014KT 10/M05 A3019 RMK A01 T00951045  RH  037%=      5-min Rain = 0
KPVS 241753Z 01012G17KT 10/M05 A3019 RMK A01 T00961049  RH  036%=      5-min Rain = 0
KPVS 241754Z 03011KT 10/M05 A3019 RMK A01 T00971046  RH  036%=      5-min Rain = 0
KPVS 241755Z 04012KT 10/M05 A3019 RMK A01 T01001046  RH  036%=      5-min Rain = 0
KPVS 241756Z 05013KT 10/M05 A3019 RMK A01 T01011048  RH  035%=      5-min Rain = 0
KPVS 241757Z 03011KT 10/M05 A3019 RMK A01 T00981051  RH  035%=      5-min Rain = 0
KPVS 241758Z 03007G12KT 10/M05 A3019 RMK A01 T00991046  RH  036%=      5-min Rain = 0
KPVS 241759Z 04010KT 10/M05 A3019 RMK A01 T01011046  RH  035%=      5-min Rain = 0
KPVS 241800Z 03009G20KT 10/M05 A3019 RMK A01 T01011048  RH  035%=      5-min Rain = 0
KPVS 241801Z 03016KT 10/M05 A3019 RMK A01 T01031047  RH  034%=      5-min Rain = 0
KPVS 241802Z 04013KT 10/M05 A3019 RMK A01 T01041052  RH  033%=      5-min Rain = 0
KPVS 241803Z 04013KT 11/M05 A3019 RMK A01 T01051053  RH  033%=      5-min Rain = 0
KPVS 241804Z 04010KT 10/M06 A3019 RMK A01 T01011055  RH  033%=      5-min Rain = 0
KPVS 241805Z 04010G15KT 10/M05 A3019 RMK A01 T01001053  RH  034%=      5-min Rain = 0
KPVS 241806Z 04012KT 10/M05 A3019 RMK A01 T01011050  RH  034%=      5-min Rain = 0
KPVS 241807Z 04012KT 10/M05 A3019 RMK A01 T01021052  RH  033%=      5-min Rain = 0
KPVS 241808Z 03011KT 10/M05 A3019 RMK A01 T01021051  RH  034%=      5-min Rain = 0
KPVS 241809Z 04009KT 10/M05 A3019 RMK A01 T01011053  RH  033%=      5-min Rain = 0
KPVS 241810Z 04009KT 10/M05 A3018 RMK A01 T01001050  RH  034%=      5-min Rain = 0
KPVS 241811Z 03015G21KT 10/M05 A3018 RMK A01 T01031050  RH  034%=      5-min Rain = 0
KPVS 241812Z 04013KT 11/M05 A3018 RMK A01 T01051049  RH  033%=      5-min Rain = 0
KPVS 241813Z 05011KT 10/M05 A3018 RMK A01 T01031053  RH  033%=      5-min Rain = 0
KPVS 241814Z 05009KT 10/M05 A3018 RMK A01 T00991054  RH  033%=      5-min Rain = 0
KPVS 241815Z 05008KT 10/M05 A3018 RMK A01 T00991047  RH  035%=      5-min Rain = 0
KPVS 241816Z 06009KT 11/M04 A3018 RMK A01 T01061041  RH  035%=      5-min Rain = 0
KPVS 241817Z 03012G19KT 11/M05 A3018 RMK A01 T01071047  RH  033%=      5-min Rain = 0
KPVS 241818Z 03014KT 11/M05 A3018 RMK A01 T01071050  RH  033%=      5-min Rain = 0
KPVS 241819Z 03010KT 10/M05 A3018 RMK A01 T01031054  RH  033%=      5-min Rain = 0
KPVS 241820Z 03011KT 10/M05 A3018 RMK A01 T01031052  RH  033%=      5-min Rain = 0
KPVS 241821Z 03011KT 11/M05 A3018 RMK A01 T01051051  RH  033%=      5-min Rain = 0
KPVS 241822Z 03012KT 11/M05 A3018 RMK A01 T01081046  RH  034%=      5-min Rain = 0
KPVS 241823Z 03009KT 10/M05 A3018 RMK A01 T01041052  RH  033%=      5-min Rain = 0
KPVS 241824Z 03010KT 10/M05 A3018 RMK A01 T01041048  RH  034%=      5-min Rain = 0
KPVS 241825Z 05012KT 10/M05 A3017 RMK A01 T01031051  RH  034%=      5-min Rain = 0
KPVS 241826Z 05013KT 11/M05 A3017 RMK A01 T01071046  RH  034%=      5-min Rain = 0
KPVS 241827Z 05010KT 11/M05 A3017 RMK A01 T01061052  RH  033%=      5-min Rain = 0
KPVS 241828Z 05013KT 11/M05 A3017 RMK A01 T01071050  RH  033%=      5-min Rain = 0
KPVS 241829Z 04010KT 11/M05 A3017 RMK A01 T01091054  RH  031%=      5-min Rain = 0
KPVS 241830Z 04011KT 11/M06 A3017 RMK A01 T01081057  RH  031%=      5-min Rain = 0
KPVS 241831Z 05010G15KT 11/M05 A3017 RMK A01 T01081051  RH  032%=      5-min Rain = 0
KPVS 241832Z 05011KT 11/M05 A3017 RMK A01 T01091053  RH  031%=      5-min Rain = 0
KPVS 241833Z 05013KT 11/M05 A3017 RMK A01 T01091054  RH  031%=      5-min Rain = 0
KPVS 241834Z 04010KT 11/M05 A3017 RMK A01 T01081052  RH  032%=      5-min Rain = 0
KPVS 241835Z 04010G16KT 11/M05 A3016 RMK A01 T01091051  RH  032%=      5-min Rain = 0
KPVS 241836Z 04014G19KT 11/M05 A3016 RMK A01 T01091054  RH  031%=      5-min Rain = 0
KPVS 241837Z 04013G18KT 11/M06 A3017 RMK A01 T01091055  RH  031%=      5-min Rain = 0
KPVS 241838Z 05013KT 11/M06 A3016 RMK A01 T01091058  RH  030%=      5-min Rain = 0
KPVS 241839Z 06010KT 11/M06 A3016 RMK A01 T01071061  RH  030%=      5-min Rain = 0
KPVS 241840Z 06012KT 11/M06 A3016 RMK A01 T01091057  RH  031%=      5-min Rain = 0
KPVS 241841Z 05010KT 11/M06 A3016 RMK A01 T01101058  RH  030%=      5-min Rain = 0
KPVS 241842Z 06009KT 11/M06 A3016 RMK A01 T01091057  RH  031%=      5-min Rain = 0
KPVS 241843Z 04011KT 11/M06 A3016 RMK A01 T01101055  RH  031%=      5-min Rain = 0
KPVS 241844Z 04013G18KT 11/M05 A3016 RMK A01 T01131054  RH  030%=      5-min Rain = 0
KPVS 241845Z 04014KT 11/M06 A3016 RMK A01 T01131058  RH  030%=      5-min Rain = 0
KPVS 241846Z 06013KT 11/M06 A3016 RMK A01 T01111058  RH  030%=      5-min Rain = 0
KPVS 241847Z 06012KT 11/M06 A3016 RMK A01 T01101058  RH  030%=      5-min Rain = 0
KPVS 241848Z 06012KT 11/M06 A3016 RMK A01 T01101057  RH  031%=      5-min Rain = 0
KPVS 241849Z 05010KT 11/M06 A3016 RMK A01 T01101060  RH  030%=      5-min Rain = 0
KPVS 241850Z 03010G16KT 11/M06 A3016 RMK A01 T01111055  RH  031%=      5-min Rain = 0
KPVS 241851Z 03014KT 12/M05 A3016 RMK A01 T01151053  RH  030%=      5-min Rain = 0
KPVS 241852Z 04011KT 11/M06 A3016 RMK A01 T01121058  RH  030%=      5-min Rain = 0
KPVS 241853Z 04010KT 11/M06 A3016 RMK A01 T01101055  RH  031%=      5-min Rain = 0
KPVS 241854Z 03015G21KT 11/M05 A3016 RMK A01 T01131052  RH  031%=      5-min Rain = 0
KPVS 241855Z 03014KT 11/M06 A3016 RMK A01 T01131057  RH  030%=      5-min Rain = 0
KPVS 241856Z 03012KT 11/M06 A3016 RMK A01 T01101059  RH  030%=      5-min Rain = 0
KPVS 241857Z 05011KT 11/M06 A3016 RMK A01 T01111055  RH  031%=      5-min Rain = 0
KPVS 241858Z 04010KT 12/M06 A3016 RMK A01 T01151055  RH  030%=      5-min Rain = 0
KPVS 241859Z 05010KT 12/M06 A3016 RMK A01 T01161056  RH  030%=      5-min Rain = 0
KPVS 241900Z 06009KT 12/M06 A3016 RMK A01 T01161059  RH  029%=      5-min Rain = 0
KPVS 241901Z 06009KT 11/M06 A3016 RMK A01 T01141061  RH  029%=      5-min Rain = 0
KPVS 241902Z 05011G17KT 11/M06 A3016 RMK A01 T01141057  RH  030%=      5-min Rain = 0
KPVS 241903Z 04014KT 12/M06 A3016 RMK A01 T01161058  RH  029%=      5-min Rain = 0
KPVS 241904Z 04013KT 12/M06 A3016 RMK A01 T01151058  RH  029%=      5-min Rain = 0
KPVS 241905Z 03012KT 12/M06 A3016 RMK A01 T01151059  RH  029%=      5-min Rain = 0
KPVS 241906Z 03012KT 11/M06 A3016 RMK A01 T01141061  RH  029%=      5-min Rain = 0
KPVS 241907Z 04011KT 12/M06 A3016 RMK A01 T01151061  RH  029%=      5-min Rain = 0
KPVS 241908Z 06014KT 12/M06 A3015 RMK A01 T01211058  RH  028%=      5-min Rain = 0
KPVS 241909Z 07013KT 12/M07 A3015 RMK A01 T01171068  RH  027%=      5-min Rain = 0
KPVS 241910Z 06011KT 12/M07 A3015 RMK A01 T01151067  RH  027%=      5-min Rain = 0
KPVS 241911Z 06011KT 12/M06 A3015 RMK A01 T01181061  RH  028%=      5-min Rain = 0
KPVS 241912Z 06012KT 12/M06 A3015 RMK A01 T01201061  RH  028%=      5-min Rain = 0
KPVS 241913Z 06009G15KT 12/M06 A3015 RMK A01 T01161062  RH  028%=      5-min Rain = 0
KPVS 241914Z 06011KT 12/M06 A3015 RMK A01 T01161062  RH  028%=      5-min Rain = 0
KPVS 241915Z 07009KT 12/M06 A3015 RMK A01 T01151062  RH  028%=      5-min Rain = 0
KPVS 241916Z 06010KT 12/M06 A3015 RMK A01 T01191059  RH  028%=      5-min Rain = 0
KPVS 241917Z 07012KT 12/M06 A3015 RMK A01 T01241064  RH  026%=      5-min Rain = 0
KPVS 241918Z 07012KT 12/M07 A3015 RMK A01 T01241066  RH  026%=      5-min Rain = 0
KPVS 241919Z 05012KT 13/M06 A3016 RMK A01 T01261063  RH  026%=      5-min Rain = 0
KPVS 241920Z 04012KT 13/M07 A3016 RMK A01 T01251069  RH  025%=      5-min Rain = 0
KPVS 241921Z 06011G16KT 13/M07 A3016 RMK A01 T01251065  RH  026%=      5-min Rain = 0
KPVS 241922Z 06008KT 12/M07 A3016 RMK A01 T01241067  RH  026%=      5-min Rain = 0
KPVS 241923Z 05009KT 12/M07 A3016 RMK A01 T01211070  RH  026%=      5-min Rain = 0
KPVS 241924Z 05010KT 12/M07 A3015 RMK A01 T01191070  RH  026%=      5-min Rain = 0
KPVS 241925Z 06009KT 12/M06 A3015 RMK A01 T01201062  RH  027%=      5-min Rain = 0
KPVS 241926Z 03009G15KT 12/M06 A3015 RMK A01 T01241060  RH  027%=      5-min Rain = 0
KPVS 241927Z 03010KT 12/M07 A3015 RMK A01 T01241066  RH  026%=      5-min Rain = 0
KPVS 241928Z 05013KT 12/M07 A3015 RMK A01 T01231068  RH  026%=      5-min Rain = 0
KPVS 241929Z 06014KT 12/M07 A3015 RMK A01 T01241072  RH  025%=      5-min Rain = 0
KPVS 241930Z 06012KT 12/M07 A3015 RMK A01 T01211072  RH  025%=      5-min Rain = 0
KPVS 241931Z 06013KT 12/M07 A3015 RMK A01 T01231068  RH  026%=      5-min Rain = 0
KPVS 241932Z 05012KT 13/M06 A3015 RMK A01 T01251063  RH  026%=      5-min Rain = 0
KPVS 241933Z 06011KT 13/M07 A3015 RMK A01 T01251070  RH  025%=      5-min Rain = 0
KPVS 241934Z 07011G16KT 12/M07 A3015 RMK A01 T01231066  RH  026%=      5-min Rain = 0
KPVS 241935Z 05012KT 13/M07 A3015 RMK A01 T01261068  RH  025%=      5-min Rain = 0
KPVS 241936Z 04010KT 13/M07 A3015 RMK A01 T01251072  RH  025%=      5-min Rain = 0
KPVS 241937Z 07012KT 13/M07 A3015 RMK A01 T01261069  RH  025%=      5-min Rain = 0
KPVS 241938Z 07008KT 12/M08 A3015 RMK A01 T01221075  RH  024%=      5-min Rain = 0
KPVS 241939Z 08009KT 12/M07 A3015 RMK A01 T01211071  RH  025%=      5-min Rain = 0
KPVS 241940Z 08009KT 12/M07 A3015 RMK A01 T01221071  RH  025%=      5-min Rain = 0
KPVS 241941Z 05011KT 12/M07 A3015 RMK A01 T01231066  RH  026%=      5-min Rain = 0
KPVS 241942Z 05010G15KT 12/M07 A3015 RMK A01 T01231068  RH  026%=      5-min Rain = 0
KPVS 241943Z 08012G17KT 12/M07 A3015 RMK A01 T01221065  RH  026%=      5-min Rain = 0
KPVS 241944Z 06014KT 13/M06 A3015 RMK A01 T01251060  RH  027%=      5-min Rain = 0
KPVS 241945Z 06010KT 13/M07 A3015 RMK A01 T01261066  RH  026%=      5-min Rain = 0
KPVS 241946Z 06008KT 12/M07 A3015 RMK A01 T01231066  RH  026%=      5-min Rain = 0
KPVS 241947Z 07009KT 12/M07 A3015 RMK A01 T01241066  RH  026%=      5-min Rain = 0
KPVS 241948Z 05008KT 12/M07 A3015 RMK A01 T01231068  RH  026%=      5-min Rain = 0
KPVS 241949Z 05007KT 12/M07 A3014 RMK A01 T01231065  RH  026%=      5-min Rain = 0
KPVS 241950Z 06009G15KT 12/M07 A3014 RMK A01 T01241066  RH  026%=      5-min Rain = 0
KPVS 241951Z 06010KT 13/M07 A3014 RMK A01 T01251067  RH  026%=      5-min Rain = 0
KPVS 241952Z 07010KT 13/M07 A3014 RMK A01 T01261070  RH  025%=      5-min Rain = 0
KPVS 241953Z 08009KT 12/M08 A3014 RMK A01 T01241075  RH  024%=      5-min Rain = 0
KPVS 241954Z 08008KT 12/M07 A3014 RMK A01 T01221072  RH  025%=      5-min Rain = 0
KPVS 241955Z 08009KT 12/M07 A3014 RMK A01 T01221072  RH  025%=      5-min Rain = 0
KPVS 241956Z 07010KT 13/M07 A3014 RMK A01 T01251069  RH  025%=      5-min Rain = 0
KPVS 241957Z 06007G12KT 13/M07 A3014 RMK A01 T01251067  RH  026%=      5-min Rain = 0
KPVS 241958Z 07008KT 13/M06 A3014 RMK A01 T01291061  RH  026%=      5-min Rain = 0
KPVS 241959Z 07009KT 13/M07 A3014 RMK A01 T01291066  RH  025%=      5-min Rain = 0
KPVS 242000Z 07009KT 13/M07 A3014 RMK A01 T01291070  RH  024%=      5-min Rain = 0
KPVS 242001Z 08009KT 13/M07 A3014 RMK A01 T01271070  RH  025%=      5-min Rain = 0
KPVS 242002Z 04010G17KT 13/M07 A3013 RMK A01 T01261067  RH  025%=      5-min Rain = 0
KPVS 242003Z 04013KT 13/M07 A3013 RMK A01 T01271065  RH  026%=      5-min Rain = 0
KPVS 242004Z 10009KT 13/M07 A3013 RMK A01 T01301067  RH  025%=      5-min Rain = 0
KPVS 242005Z 10008KT 13/M07 A3013 RMK A01 T01291068  RH  025%=      5-min Rain = 0
KPVS 242006Z 08008KT 13/M07 A3013 RMK A01 T01291066  RH  025%=      5-min Rain = 0
KPVS 242007Z 04008KT 13/M06 A3013 RMK A01 T01321060  RH  026%=      5-min Rain = 0
KPVS 242008Z 07012KT 13/M07 A3013 RMK A01 T01321067  RH  024%=      5-min Rain = 0
KPVS 242009Z 07012KT 13/M07 A3013 RMK A01 T01311069  RH  024%=      5-min Rain = 0
KPVS 242010Z 08010KT 13/M07 A3013 RMK A01 T01291071  RH  024%=      5-min Rain = 0
KPVS 242011Z 07010KT 13/M07 A3013 RMK A01 T01271071  RH  025%=      5-min Rain = 0
KPVS 242012Z 06011KT 13/M07 A3013 RMK A01 T01261069  RH  025%=      5-min Rain = 0
KPVS 242013Z 07011KT 13/M07 A3013 RMK A01 T01281066  RH  025%=      5-min Rain = 0
KPVS 242014Z 07010G16KT 13/M07 A3013 RMK A01 T01291068  RH  025%=      5-min Rain = 0
KPVS 242015Z 06014KT 13/M07 A3013 RMK A01 T01291073  RH  024%=      5-min Rain = 0
KPVS 242016Z 08011KT 13/M08 A3013 RMK A01 T01271076  RH  024%=      5-min Rain = 0
KPVS 242017Z 07010KT 13/M07 A3013 RMK A01 T01271072  RH  024%=      5-min Rain = 0
KPVS 242018Z 06012KT 13/M07 A3013 RMK A01 T01301073  RH  024%=      5-min Rain = 0
KPVS 242019Z 08013KT 13/M07 A3013 RMK A01 T01301072  RH  024%=      5-min Rain = 0
KPVS 242020Z 10010KT 13/M07 A3013 RMK A01 T01301073  RH  024%=      5-min Rain = 0
KPVS 242021Z 08008KT 13/M07 A3013 RMK A01 T01281074  RH  024%=      5-min Rain = 0
KPVS 242022Z 07009KT 13/M07 A3013 RMK A01 T01311065  RH  025%=      5-min Rain = 0
KPVS 242023Z 06006KT 13/M07 A3013 RMK A01 T01321069  RH  024%=      5-min Rain = 0
KPVS 242024Z 05006KT 13/M07 A3013 RMK A01 T01311072  RH  024%=      5-min Rain = 0
KPVS 242025Z 06009G14KT 13/M07 A3013 RMK A01 T01301070  RH  024%=      5-min Rain = 0
KPVS 242026Z 05011KT 13/M07 A3013 RMK A01 T01301073  RH  024%=      5-min Rain = 0
KPVS 242027Z 06008KT 13/M07 A3013 RMK A01 T01281074  RH  024%=      5-min Rain = 0
KPVS 242028Z 08010G16KT 13/M07 A3013 RMK A01 T01291068  RH  025%=      5-min Rain = 0
KPVS 242029Z 09011KT 13/M07 A3012 RMK A01 T01321071  RH  024%=      5-min Rain = 0
KPVS 242030Z 09009KT 13/M08 A3012 RMK A01 T01311075  RH  023%=      5-min Rain = 0
KPVS 242031Z 09009KT 13/M07 A3012 RMK A01 T01321068  RH  024%=      5-min Rain = 0
KPVS 242032Z 07010G15KT 14/M07 A3012 RMK A01 T01361067  RH  024%=      5-min Rain = 0
KPVS 242033Z 06011KT 14/M07 A3012 RMK A01 T01361074  RH  022%=      5-min Rain = 0
KPVS 242034Z 06009KT 13/M08 A3013 RMK A01 T01341075  RH  023%=      5-min Rain = 0
KPVS 242035Z 05006G11KT 13/M08 A3013 RMK A01 T01311081  RH  022%=      5-min Rain = 0
KPVS 242036Z 03007KT 13/M07 A3013 RMK A01 T01311074  RH  023%=      5-min Rain = 0
KPVS 242037Z 03009KT 13/M08 A3013 RMK A01 T01311079  RH  022%=      5-min Rain = 0
KPVS 242038Z 04007KT 13/M08 A3012 RMK A01 T01291081  RH  022%=      5-min Rain = 0
KPVS 242039Z 07006KT 13/M08 A3012 RMK A01 T01271082  RH  023%=      5-min Rain = 0
KPVS 242040Z 06008KT 13/M08 A3012 RMK A01 T01271077  RH  023%=      5-min Rain = 0
KPVS 242041Z 09009KT 13/M07 A3012 RMK A01 T01301072  RH  024%=      5-min Rain = 0
KPVS 242042Z 10008KT 13/M07 A3012 RMK A01 T01321072  RH  023%=      5-min Rain = 0
KPVS 242043Z 09008KT 13/M07 A3012 RMK A01 T01331071  RH  024%=      5-min Rain = 0
KPVS 242044Z 09008KT 13/M07 A3012 RMK A01 T01341072  RH  023%=      5-min Rain = 0
KPVS 242045Z 11008KT 13/M07 A3012 RMK A01 T01341069  RH  024%=      5-min Rain = 0
KPVS 242046Z 11009KT 13/M07 A3013 RMK A01 T01341072  RH  023%=      5-min Rain = 0
KPVS 242047Z 10008KT 13/M07 A3013 RMK A01 T01331073  RH  023%=      5-min Rain = 0
KPVS 242048Z 11007KT 13/M08 A3013 RMK A01 T01311076  RH  023%=      5-min Rain = 0
KPVS 242049Z 08011KT 13/M07 A3013 RMK A01 T01311073  RH  024%=      5-min Rain = 0
KPVS 242050Z 09010KT 13/M07 A3013 RMK A01 T01331070  RH  024%=      5-min Rain = 0
KPVS 242051Z 09010KT 14/M07 A3013 RMK A01 T01351073  RH  023%=      5-min Rain = 0
KPVS 242052Z 09010KT 13/M08 A3013 RMK A01 T01311078  RH  023%=      5-min Rain = 0
KPVS 242053Z 09011KT 13/M08 A3012 RMK A01 T01291077  RH  023%=      5-min Rain = 0
KPVS 242054Z 10009KT 13/M08 A3012 RMK A01 T01261077  RH  023%=      5-min Rain = 0
KPVS 242055Z 10005KT 13/M07 A3012 RMK A01 T01271074  RH  024%=      5-min Rain = 0
KPVS 242056Z 07007KT 13/M07 A3012 RMK A01 T01281073  RH  024%=      5-min Rain = 0
KPVS 242057Z 07007KT 13/M07 A3012 RMK A01 T01301070  RH  024%=      5-min Rain = 0
KPVS 242058Z 07005KT 13/M08 A3012 RMK A01 T01301076  RH  023%=      5-min Rain = 0
KPVS 242059Z 06008G13KT 13/M07 A3012 RMK A01 T01291071  RH  024%=      5-min Rain = 0
KPVS 242100Z 06011KT 13/M07 A3012 RMK A01 T01311073  RH  023%=      5-min Rain = 0
KPVS 242101Z 08011KT 13/M07 A3012 RMK A01 T01321072  RH  024%=      5-min Rain = 0
KPVS 242102Z 09007KT 13/M08 A3012 RMK A01 T01321075  RH  023%=      5-min Rain = 0
KPVS 242103Z 07007KT 13/M07 A3012 RMK A01 T01311072  RH  024%=      5-min Rain = 0
KPVS 242104Z 07008KT 13/M07 A3012 RMK A01 T01341068  RH  024%=      5-min Rain = 0
KPVS 242105Z 07009G15KT 14/M07 A3012 RMK A01 T01351072  RH  023%=      5-min Rain = 0
KPVS 242106Z 08013KT 14/M07 A3012 RMK A01 T01361069  RH  023%=      5-min Rain = 0
KPVS 242107Z 08009KT 14/M07 A3012 RMK A01 T01351073  RH  023%=      5-min Rain = 0
KPVS 242108Z 08011KT 13/M08 A3012 RMK A01 T01321077  RH  023%=      5-min Rain = 0
KPVS 242109Z 08009KT 13/M07 A3012 RMK A01 T01321074  RH  023%=      5-min Rain = 0
KPVS 242110Z 11006KT 13/M08 A3012 RMK A01 T01311077  RH  023%=      5-min Rain = 0
KPVS 242111Z 10007KT 13/M08 A3012 RMK A01 T01291079  RH  023%=      5-min Rain = 0
KPVS 242112Z 06007KT 13/M07 A3012 RMK A01 T01301074  RH  024%=      5-min Rain = 0
KPVS 242113Z 06009KT 13/M08 A3012 RMK A01 T01301078  RH  023%=      5-min Rain = 0
KPVS 242114Z 06011KT 13/M07 A3011 RMK A01 T01331070  RH  024%=      5-min Rain = 0
KPVS 242115Z 07012KT 14/M07 A3011 RMK A01 T01351074  RH  023%=      5-min Rain = 0
KPVS 242116Z 06008KT 13/M08 A3011 RMK A01 T01331079  RH  022%=      5-min Rain = 0
KPVS 242117Z 06007KT 13/M08 A3012 RMK A01 T01301080  RH  022%=      5-min Rain = 0
KPVS 242118Z 06005KT 13/M08 A3012 RMK A01 T01311077  RH  023%=      5-min Rain = 0
KPVS 242119Z 08005KT 13/M08 A3012 RMK A01 T01321078  RH  023%=      5-min Rain = 0
KPVS 242120Z 07009G14KT 14/M07 A3012 RMK A01 T01351073  RH  023%=      5-min Rain = 0
KPVS 242121Z 07012KT 14/M08 A3011 RMK A01 T01371079  RH  022%=      5-min Rain = 0
KPVS 242122Z 07009KT 14/M08 A3011 RMK A01 T01351081  RH  022%=      5-min Rain = 0
KPVS 242123Z 07006KT 13/M08 A3011 RMK A01 T01341081  RH  022%=      5-min Rain = 0
KPVS 242124Z 07008KT 14/M08 A3011 RMK A01 T01351081  RH  022%=      5-min Rain = 0
KPVS 242125Z 07007KT 14/M08 A3011 RMK A01 T01361077  RH  022%=      5-min Rain = 0
KPVS 242126Z 07006KT 14/M08 A3011 RMK A01 T01371078  RH  022%=      5-min Rain = 0
KPVS 242127Z 08007KT 14/M08 A3011 RMK A01 T01381078  RH  022%=      5-min Rain = 0
KPVS 242128Z 11008KT 14/M08 A3011 RMK A01 T01391076  RH  022%=      5-min Rain = 0
KPVS 242129Z 11009KT 14/M08 A3011 RMK A01 T01381083  RH  021%=      5-min Rain = 0
KPVS 242130Z 10009G14KT 14/M08 A3011 RMK A01 T01351083  RH  021%=      5-min Rain = 0
KPVS 242131Z 09010KT 14/M08 A3011 RMK A01 T01351080  RH  022%=      5-min Rain = 0
KPVS 242132Z 08013KT 14/M08 A3011 RMK A01 T01381079  RH  021%=      5-min Rain = 0
KPVS 242133Z 09010KT 14/M08 A3011 RMK A01 T01361083  RH  021%=      5-min Rain = 0
KPVS 242134Z 08009KT 14/M08 A3011 RMK A01 T01361080  RH  022%=      5-min Rain = 0
KPVS 242135Z 09008KT 14/M09 A3011 RMK A01 T01351085  RH  021%=      5-min Rain = 0
KPVS 242136Z 10008KT 13/M08 A3011 RMK A01 T01341080  RH  022%=      5-min Rain = 0
KPVS 242137Z 11007KT 14/M08 A3011 RMK A01 T01361079  RH  022%=      5-min Rain = 0
KPVS 242138Z 10008KT 14/M08 A3011 RMK A01 T01381077  RH  022%=      5-min Rain = 0
KPVS 242139Z 10010KT 14/M08 A3011 RMK A01 T01391080  RH  021%=      5-min Rain = 0
KPVS 242140Z 11008KT 14/M09 A3011 RMK A01 T01371085  RH  021%=      5-min Rain = 0
KPVS 242141Z 11009KT 14/M08 A3011 RMK A01 T01351083  RH  021%=      5-min Rain = 0
KPVS 242142Z 10008G13KT 14/M08 A3011 RMK A01 T01351081  RH  021%=      5-min Rain = 0
KPVS 242143Z 12008KT 14/M08 A3011 RMK A01 T01371078  RH  022%=      5-min Rain = 0
KPVS 242144Z 12009KT 14/M08 A3011 RMK A01 T01381078  RH  022%=      5-min Rain = 0
KPVS 242145Z 12007KT 14/M08 A3011 RMK A01 T01361081  RH  021%=      5-min Rain = 0
KPVS 242146Z 09008KT 14/M08 A3011 RMK A01 T01351081  RH  022%=      5-min Rain = 0
KPVS 242147Z 10010G15KT 14/M08 A3011 RMK A01 T01361078  RH  022%=      5-min Rain = 0
KPVS 242148Z 12008KT 14/M08 A3011 RMK A01 T01371080  RH  021%=      5-min Rain = 0
KPVS 242149Z 12006KT 14/M08 A3011 RMK A01 T01371077  RH  022%=      5-min Rain = 0
KPVS 242150Z 14007KT 14/M08 A3011 RMK A01 T01391077  RH  022%=      5-min Rain = 0
KPVS 242151Z 11006KT 14/M08 A3011 RMK A01 T01391079  RH  021%=      5-min Rain = 0
KPVS 242152Z 08008KT 14/M08 A3011 RMK A01 T01391076  RH  022%=      5-min Rain = 0
KPVS 242153Z 08009KT 14/M08 A3011 RMK A01 T01401075  RH  022%=      5-min Rain = 0
KPVS 242154Z 10009G14KT 14/M08 A3011 RMK A01 T01401077  RH  021%=      5-min Rain = 0
KPVS 242155Z 09008KT 14/M08 A3011 RMK A01 T01361083  RH  021%=      5-min Rain = 0
KPVS 242156Z 09008KT 13/M08 A3011 RMK A01 T01341081  RH  022%=      5-min Rain = 0
KPVS 242157Z 10008KT 13/M08 A3011 RMK A01 T01341080  RH  022%=      5-min Rain = 0
KPVS 242158Z 08008G13KT 14/M08 A3011 RMK A01 T01361075  RH  022%=      5-min Rain = 0
KPVS 242159Z 08010KT 14/M08 A3011 RMK A01 T01351083  RH  021%=      5-min Rain = 0
KPVS 242200Z 10009KT 13/M08 A3011 RMK A01 T01341079  RH  022%=      5-min Rain = 0
KPVS 242201Z 10008KT 13/M08 A3011 RMK A01 T01341079  RH  022%=      5-min Rain = 0
KPVS 242202Z 08010KT 14/M08 A3011 RMK A01 T01361076  RH  022%=      5-min Rain = 0
KPVS 242203Z 08011KT 14/M08 A3011 RMK A01 T01371078  RH  022%=      5-min Rain = 0
KPVS 242204Z 08012KT 14/M08 A3011 RMK A01 T01351078  RH  022%=      5-min Rain = 0
KPVS 242205Z 07009KT 14/M08 A3011 RMK A01 T01351077  RH  022%=      5-min Rain = 0
KPVS 242206Z 07006KT 14/M07 A3011 RMK A01 T01361074  RH  023%=      5-min Rain = 0
KPVS 242207Z 07007KT 14/M08 A3011 RMK A01 T01381075  RH  022%=      5-min Rain = 0
KPVS 242208Z 08006KT 14/M07 A3011 RMK A01 T01391073  RH  022%=      5-min Rain = 0
KPVS 242209Z 08008KT 14/M08 A3011 RMK A01 T01381081  RH  021%=      5-min Rain = 0
KPVS 242210Z 09010KT 13/M08 A3011 RMK A01 T01341082  RH  021%=      5-min Rain = 0
KPVS 242211Z 08008KT 13/M08 A3011 RMK A01 T01341082  RH  022%=      5-min Rain = 0
KPVS 242212Z 10007KT 14/M08 A3011 RMK A01 T01351078  RH  022%=      5-min Rain = 0
KPVS 242213Z 11010KT 14/M08 A3011 RMK A01 T01361079  RH  022%=      5-min Rain = 0
KPVS 242214Z 11010KT 14/M08 A3011 RMK A01 T01351081  RH  021%=      5-min Rain = 0
KPVS 242215Z 10013KT 13/M08 A3011 RMK A01 T01341082  RH  022%=      5-min Rain = 0
KPVS 242216Z 11011KT 13/M08 A3011 RMK A01 T01331084  RH  021%=      5-min Rain = 0
KPVS 242217Z 12011KT 13/M08 A3011 RMK A01 T01331082  RH  022%=      5-min Rain = 0
KPVS 242218Z 11010KT 13/M09 A3011 RMK A01 T01321085  RH  021%=      5-min Rain = 0
KPVS 242219Z 11006KT 13/M08 A3011 RMK A01 T01321082  RH  022%=      5-min Rain = 0
KPVS 242220Z 11006KT 13/M08 A3011 RMK A01 T01331082  RH  022%=      5-min Rain = 0
KPVS 242221Z 10010KT 13/M08 A301 RMK A01 T01331083  RH  021%=      5-min Rain = 0
KPVS 242222Z 07009KT 13/M08 A301 RMK A01 T01341082  RH  022%=      5-min Rain = 0
KPVS 242223Z 09011KT 13/M08 A301 RMK A01 T01341083  RH  021%=      5-min Rain = 0
KPVS 242224Z 09011KT 13/M08 A301 RMK A01 T01341083  RH  021%=      5-min Rain = 0
KPVS 242225Z 09011KT 13/M08 A301 RMK A01 T01341084  RH  021%=      5-min Rain = 0
KPVS 242226Z 08008KT 13/M08 A3011 RMK A01 T01341081  RH  022%=      5-min Rain = 0
KPVS 242227Z 09008KT 14/M08 A3011 RMK A01 T01361081  RH  021%=      5-min Rain = 0
KPVS 242228Z 09008G13KT 14/M08 A301 RMK A01 T01361082  RH  021%=      5-min Rain = 0
KPVS 242229Z 11011KT 14/M08 A3011 RMK A01 T01361083  RH  021%=      5-min Rain = 0
KPVS 242230Z 10009KT 14/M08 A3011 RMK A01 T01361084  RH  021%=      5-min Rain = 0
KPVS 242231Z 10009KT 14/M08 A3011 RMK A01 T01351084  RH  021%=      5-min Rain = 0
KPVS 242232Z 12006KT 14/M08 A3011 RMK A01 T01351084  RH  021%=      5-min Rain = 0
KPVS 242233Z 12009KT 14/M08 A301 RMK A01 T01371079  RH  022%=      5-min Rain = 0
KPVS 242234Z 10009KT 14/M08 A301 RMK A01 T01381083  RH  021%=      5-min Rain = 0
KPVS 242235Z 11009G14KT 14/M08 A301 RMK A01 T01371082  RH  021%=      5-min Rain = 0
KPVS 242236Z 11010KT 14/M08 A301 RMK A01 T01371084  RH  021%=      5-min Rain = 0
KPVS 242237Z 10007KT 14/M09 A301 RMK A01 T01351088  RH  020%=      5-min Rain = 0
KPVS 242238Z 11008KT 13/M09 A301 RMK A01 T01341086  RH  021%=      5-min Rain = 0
KPVS 242239Z 11008KT 13/M09 A301 RMK A01 T01341085  RH  021%=      5-min Rain = 0
KPVS 242240Z 11010KT 14/M08 A301 RMK A01 T01351083  RH  021%=      5-min Rain = 0
KPVS 242241Z 10006KT 14/M08 A301 RMK A01 T01351084  RH  021%=      5-min Rain = 0
KPVS 242242Z 10010G15KT 14/M08 A301 RMK A01 T01351082  RH  021%=      5-min Rain = 0
KPVS 242243Z 10010G16KT 14/M09 A301 RMK A01 T01351085  RH  021%=      5-min Rain = 0
KPVS 242244Z 10009G14KT 14/M08 A301 RMK A01 T01351083  RH  021%=      5-min Rain = 0
KPVS 242245Z 10011KT 14/M08 A301 RMK A01 T01351084  RH  021%=      5-min Rain = 0
KPVS 242246Z 09007KT 13/M09 A301 RMK A01 T01341086  RH  021%=      5-min Rain = 0
KPVS 242247Z 10007KT 13/M08 A301 RMK A01 T01341084  RH  021%=      5-min Rain = 0
KPVS 242248Z 09008G14KT 13/M09 A301 RMK A01 T01341085  RH  021%=      5-min Rain = 0
KPVS 242249Z 10008KT 13/M08 A301 RMK A01 T01341083  RH  021%=      5-min Rain = 0
KPVS 242250Z 09008KT 14/M08 A301 RMK A01 T01351084  RH  021%=      5-min Rain = 0
KPVS 242251Z 10009KT 14/M08 A301 RMK A01 T01351083  RH  021%=      5-min Rain = 0
KPVS 242252Z 10009KT 14/M08 A301 RMK A01 T01361084  RH  021%=      5-min Rain = 0
KPVS 242253Z 09009KT 14/M08 A301 RMK A01 T01351082  RH  021%=      5-min Rain = 0
KPVS 242254Z 09011KT 14/M08 A301 RMK A01 T01351084  RH  021%=      5-min Rain = 0
KPVS 242255Z 11010KT 13/M09 A301 RMK A01 T01331087  RH  021%=      5-min Rain = 0
KPVS 242256Z 11010KT 13/M09 A301 RMK A01 T01321085  RH  021%=      5-min Rain = 0
KPVS 242257Z 11008KT 13/M08 A301 RMK A01 T01331083  RH  021%=      5-min Rain = 0
KPVS 242258Z 09007KT 13/M08 A301 RMK A01 T01331083  RH  021%=      5-min Rain = 0
KPVS 242259Z 08007KT 13/M08 A301 RMK A01 T01341084  RH  021%=      5-min Rain = 0
KPVS 242300Z 10007KT 13/M09 A301 RMK A01 T01331085  RH  021%=      5-min Rain = 0
KPVS 242301Z 11005KT 13/M09 A301 RMK A01 T01331085  RH  021%=      5-min Rain = 0
KPVS 242302Z 09005KT 13/M08 A301 RMK A01 T01341080  RH  022%=      5-min Rain = 0
KPVS 242303Z 10007KT 14/M08 A301 RMK A01 T01361081  RH  021%=      5-min Rain = 0
KPVS 242304Z 09010KT 14/M09 A301 RMK A01 T01361086  RH  021%=      5-min Rain = 0
KPVS 242305Z 09011KT 14/M09 A301 RMK A01 T01351089  RH  020%=      5-min Rain = 0
KPVS 242306Z 09008KT 13/M09 A301 RMK A01 T01331091  RH  020%=      5-min Rain = 0
KPVS 242307Z 08006KT 13/M09 A301 RMK A01 T01321090  RH  020%=      5-min Rain = 0
KPVS 242308Z 09010KT 13/M09 A301 RMK A01 T01331088  RH  021%=      5-min Rain = 0
KPVS 242309Z 09008KT 13/M09 A301 RMK A01 T01331089  RH  020%=      5-min Rain = 0
KPVS 242310Z 08010KT 13/M09 A301 RMK A01 T01331090  RH  020%=      5-min Rain = 0
KPVS 242311Z 10010KT 13/M09 A301 RMK A01 T01331089  RH  020%=      5-min Rain = 0
KPVS 242312Z 10010KT 13/M09 A301 RMK A01 T01321091  RH  020%=      5-min Rain = 0
KPVS 242313Z 08009KT 13/M09 A3011 RMK A01 T01331090  RH  020%=      5-min Rain = 0
KPVS 242314Z 08009KT 13/M09 A3011 RMK A01 T01331089  RH  020%=      5-min Rain = 0
KPVS 242315Z 10009KT 13/M09 A3011 RMK A01 T01331088  RH  021%=      5-min Rain = 0
KPVS 242316Z 09006KT 13/M09 A3011 RMK A01 T01321091  RH  020%=      5-min Rain = 0
KPVS 242317Z 09007KT 13/M09 A3011 RMK A01 T01321090  RH  021%=      5-min Rain = 0
KPVS 242318Z 10007KT 13/M09 A3011 RMK A01 T01321086  RH  021%=      5-min Rain = 0
KPVS 242319Z 10007KT 13/M09 A3011 RMK A01 T01331087  RH  021%=      5-min Rain = 0
KPVS 242320Z 10008KT 13/M09 A3011 RMK A01 T01331090  RH  020%=      5-min Rain = 0
KPVS 242321Z 12009KT 13/M09 A3011 RMK A01 T01311090  RH  021%=      5-min Rain = 0
KPVS 242322Z 11010KT 13/M09 A3011 RMK A01 T01311087  RH  021%=      5-min Rain = 0
KPVS 242323Z 08009KT 13/M09 A3011 RMK A01 T01311087  RH  021%=      5-min Rain = 0
KPVS 242324Z 09009KT 13/M09 A3011 RMK A01 T01311087  RH  021%=      5-min Rain = 0
KPVS 242325Z 10008KT 13/M09 A3011 RMK A01 T01301088  RH  021%=      5-min Rain = 0
KPVS 242326Z 11008KT 13/M09 A3011 RMK A01 T01301087  RH  021%=      5-min Rain = 0
KPVS 242327Z 11007KT 13/M09 A3011 RMK A01 T01301086  RH  021%=      5-min Rain = 0
KPVS 242328Z 09007KT 13/M09 A3011 RMK A01 T01311085  RH  021%=      5-min Rain = 0
KPVS 242329Z 10008KT 13/M09 A3012 RMK A01 T01321085  RH  021%=      5-min Rain = 0
KPVS 242330Z 10009KT 13/M09 A3012 RMK A01 T01321088  RH  021%=      5-min Rain = 0
KPVS 242331Z 10008KT 13/M09 A3012 RMK A01 T01301089  RH  021%=      5-min Rain = 0
KPVS 242332Z 09009KT 13/M09 A3012 RMK A01 T01301088  RH  021%=      5-min Rain = 0
KPVS 242333Z 09008KT 13/M09 A3012 RMK A01 T01301089  RH  021%=      5-min Rain = 0
KPVS 242334Z 10008KT 13/M09 A3012 RMK A01 T01291088  RH  021%=      5-min Rain = 0
KPVS 242335Z 09007KT 13/M09 A3012 RMK A01 T01291088  RH  021%=      5-min Rain = 0
KPVS 242336Z 08010KT 13/M09 A3011 RMK A01 T01291086  RH  021%=      5-min Rain = 0
KPVS 242337Z 10011KT 13/M09 A3011 RMK A01 T01291085  RH  022%=      5-min Rain = 0
KPVS 242338Z 11008KT 13/M09 A3011 RMK A01 T01291087  RH  021%=      5-min Rain = 0
KPVS 242339Z 10008KT 13/M09 A3011 RMK A01 T01281087  RH  021%=      5-min Rain = 0
KPVS 242340Z 10008KT 13/M09 A3011 RMK A01 T01281089  RH  021%=      5-min Rain = 0
KPVS 242341Z 10006KT 13/M09 A3011 RMK A01 T01281089  RH  021%=      5-min Rain = 0
KPVS 242342Z 11006KT 13/M09 A3011 RMK A01 T01281087  RH  021%=      5-min Rain = 0
KPVS 242343Z 10010KT 13/M09 A3011 RMK A01 T01281087  RH  021%=      5-min Rain = 0
KPVS 242344Z 10008KT 13/M09 A3011 RMK A01 T01281089  RH  021%=      5-min Rain = 0
KPVS 242345Z 10008KT 13/M09 A3011 RMK A01 T01271088  RH  021%=      5-min Rain = 0
KPVS 242346Z 10006KT 13/M09 A3011 RMK A01 T01271087  RH  022%=      5-min Rain = 0
KPVS 242347Z 11007KT 13/M09 A3011 RMK A01 T01271085  RH  022%=      5-min Rain = 0
KPVS 242348Z 09006KT 13/M08 A3011 RMK A01 T01281084  RH  022%=      5-min Rain = 0
KPVS 242349Z 09007KT 13/M09 A3011 RMK A01 T01281085  RH  022%=      5-min Rain = 0
KPVS 242350Z 09006KT 13/M09 A3012 RMK A01 T01281085  RH  022%=      5-min Rain = 0
KPVS 242351Z 09007KT 13/M09 A3012 RMK A01 T01281086  RH  022%=      5-min Rain = 0
KPVS 242352Z 08006KT 13/M09 A3012 RMK A01 T01271086  RH  022%=      5-min Rain = 0
KPVS 242353Z 09008KT 13/M09 A3012 RMK A01 T01261086  RH  022%=      5-min Rain = 0
KPVS 242354Z 08008KT 13/M09 A3012 RMK A01 T01261088  RH  022%=      5-min Rain = 0
KPVS 242355Z 09009KT 13/M09 A3011 RMK A01 T01251088  RH  022%=      5-min Rain = 0
KPVS 242356Z 10008KT 12/M09 A3011 RMK A01 T01241088  RH  022%=      5-min Rain = 0
KPVS 242357Z 09008KT 12/M09 A3011 RMK A01 T01241087  RH  022%=      5-min Rain = 0
KPVS 242358Z 08008G14KT 12/M09 A3011 RMK A01 T01241087  RH  022%=      5-min Rain = 0
KPVS 242359Z 09011KT 12/M09 A3011 RMK A01 T01231086  RH  022%=      5-min Rain = 0
KPVS 250000Z 09009KT 12/M09 A3011 RMK A01 T01231088  RH  022%=      5-min Rain = 0
KPVS 250001Z 09009KT 12/M09 A3011 RMK A01 T01231087  RH  022%=      5-min Rain = 0
KPVS 250002Z 10009KT 12/M09 A3011 RMK A01 T01231087  RH  022%=      5-min Rain = 0
KPVS 250003Z 11008KT 12/M09 A3011 RMK A01 T01221087  RH  022%=      5-min Rain = 0
KPVS 250004Z 10007KT 12/M09 A3011 RMK A01 T01231087  RH  022%=      5-min Rain = 0
KPVS 250005Z 09006KT 12/M09 A3012 RMK A01 T01221086  RH  023%=      5-min Rain = 0
KPVS 250006Z 09006KT 12/M09 A3012 RMK A01 T01221086  RH  023%=      5-min Rain = 0
KPVS 250007Z 09006KT 12/M09 A3012 RMK A01 T01211086  RH  023%=      5-min Rain = 0
KPVS 250008Z 09005KT 12/M09 A3012 RMK A01 T01211085  RH  023%=      5-min Rain = 0
KPVS 250009Z 10006KT 12/M09 A3012 RMK A01 T01201085  RH  023%=      5-min Rain = 0
KPVS 250010Z 10008KT 12/M09 A3012 RMK A01 T01201085  RH  023%=      5-min Rain = 0
KPVS 250011Z 10007KT 12/M09 A3012 RMK A01 T01201085  RH  023%=      5-min Rain = 0
KPVS 250012Z 10007KT 12/M08 A3012 RMK A01 T01201084  RH  023%=      5-min Rain = 0
KPVS 250013Z 10008KT 12/M08 A3012 RMK A01 T01191084  RH  023%=      5-min Rain = 0
KPVS 250014Z 10007KT 12/M08 A3012 RMK A01 T01191084  RH  023%=      5-min Rain = 0
KPVS 250015Z 10007KT 12/M08 A3012 RMK A01 T01181084  RH  024%=      5-min Rain = 0
KPVS 250016Z 10008KT 12/M08 A3012 RMK A01 T01171083  RH  024%=      5-min Rain = 0
KPVS 250017Z 10009KT 12/M08 A3012 RMK A01 T01171083  RH  024%=      5-min Rain = 0
KPVS 250018Z 09008KT 12/M08 A3012 RMK A01 T01161083  RH  024%=      5-min Rain = 0
KPVS 250019Z 09008KT 12/M08 A3012 RMK A01 T01151083  RH  024%=      5-min Rain = 0
KPVS 250020Z 10008KT 12/M08 A3012 RMK A01 T01151083  RH  024%=      5-min Rain = 0
KPVS 250021Z 10008KT 11/M08 A3012 RMK A01 T01141083  RH  024%=      5-min Rain = 0
KPVS 250022Z 09007KT 11/M08 A3012 RMK A01 T01141083  RH  024%=      5-min Rain = 0
KPVS 250023Z 09007KT 11/M08 A3013 RMK A01 T01131083  RH  025%=      5-min Rain = 0
KPVS 250024Z 09006KT 11/M08 A3013 RMK A01 T01121082  RH  025%=      5-min Rain = 0
KPVS 250025Z 09008KT 11/M08 A3013 RMK A01 T01121083  RH  025%=      5-min Rain = 0
KPVS 250026Z 09008KT 11/M08 A3013 RMK A01 T01121083  RH  025%=      5-min Rain = 0
KPVS 250027Z 09008KT 11/M08 A3013 RMK A01 T01121084  RH  025%=      5-min Rain = 0
KPVS 250028Z 08007KT 11/M08 A3013 RMK A01 T01121084  RH  025%=      5-min Rain = 0
KPVS 250029Z 09006KT 11/M08 A3013 RMK A01 T01111083  RH  025%=      5-min Rain = 0
KPVS 250030Z 09007KT 11/M08 A3013 RMK A01 T01101083  RH  025%=      5-min Rain = 0
KPVS 250031Z 09006KT 11/M08 A3013 RMK A01 T01091083  RH  025%=      5-min Rain = 0
KPVS 250032Z 09006KT 11/M08 A3013 RMK A01 T01081083  RH  025%=      5-min Rain = 0
KPVS 250033Z 09007KT 11/M08 A3013 RMK A01 T01071082  RH  026%=      5-min Rain = 0
KPVS 250034Z 09006KT 11/M08 A3013 RMK A01 T01071082  RH  026%=      5-min Rain = 0
KPVS 250035Z 09006KT 11/M08 A3013 RMK A01 T01061082  RH  026%=      5-min Rain = 0
KPVS 250036Z 10006KT 11/M08 A3013 RMK A01 T01051082  RH  026%=      5-min Rain = 0
KPVS 250037Z 09006KT 10/M08 A3013 RMK A01 T01041083  RH  026%=      5-min Rain = 0
KPVS 250038Z 09007KT 10/M08 A3013 RMK A01 T01041083  RH  026%=      5-min Rain = 0
KPVS 250039Z 10007KT 10/M08 A3013 RMK A01 T01041083  RH  026%=      5-min Rain = 0
KPVS 250040Z 09006KT 10/M08 A3014 RMK A01 T01041083  RH  026%=      5-min Rain = 0
KPVS 250041Z 09007KT 10/M08 A3014 RMK A01 T01021083  RH  026%=      5-min Rain = 0
KPVS 250042Z 09006KT 10/M08 A3014 RMK A01 T01021084  RH  026%=      5-min Rain = 0
KPVS 250043Z 09006KT 10/M08 A3014 RMK A01 T01021084  RH  026%=      5-min Rain = 0
KPVS 250044Z 09006KT 10/M08 A3014 RMK A01 T01001084  RH  026%=      5-min Rain = 0
KPVS 250045Z 09007KT 10/M08 A3014 RMK A01 T01001084  RH  027%=      5-min Rain = 0
KPVS 250046Z 09007KT 10/M08 A3014 RMK A01 T01001084  RH  027%=      5-min Rain = 0
KPVS 250047Z 09007KT 10/M08 A3014 RMK A01 T00991084  RH  027%=      5-min Rain = 0
KPVS 250048Z 09006KT 10/M08 A3014 RMK A01 T00981084  RH  027%=      5-min Rain = 0
KPVS 250049Z 09006KT 10/M08 A3014 RMK A01 T00981084  RH  027%=      5-min Rain = 0
KPVS 250050Z 09006KT 10/M08 A3014 RMK A01 T00981084  RH  027%=      5-min Rain = 0
KPVS 250051Z 09006KT 10/M08 A3014 RMK A01 T00971084  RH  027%=      5-min Rain = 0
KPVS 250052Z 09006KT 10/M08 A3014 RMK A01 T00971084  RH  027%=      5-min Rain = 0
KPVS 250053Z 09006KT 10/M08 A3014 RMK A01 T00961084  RH  027%=      5-min Rain = 0
KPVS 250054Z 09005KT 10/M08 A3014 RMK A01 T00961084  RH  027%=      5-min Rain = 0
KPVS 250055Z 09005KT 10/M08 A3014 RMK A01 T00951084  RH  027%=      5-min Rain = 0
KPVS 250056Z 09007KT 09/M08 A3014 RMK A01 T00941084  RH  028%=      5-min Rain = 0
KPVS 250057Z 09006KT 09/M08 A3014 RMK A01 T00931084  RH  028%=      5-min Rain = 0
KPVS 250058Z 09005KT 09/M08 A3014 RMK A01 T00931083  RH  028%=      5-min Rain = 0
KPVS 250059Z 09005KT 09/M08 A3014 RMK A01 T00921083  RH  028%=      5-min Rain = 0
KPVS 250100Z 08005KT 09/M08 A3015 RMK A01 T00901083  RH  029%=      5-min Rain = 0
KPVS 250101Z 08005KT 09/M08 A3015 RMK A01 T00891082  RH  029%=      5-min Rain = 0
KPVS 250102Z 08006KT 09/M08 A3015 RMK A01 T00871082  RH  029%=      5-min Rain = 0
KPVS 250103Z 08006KT 09/M08 A3015 RMK A01 T00861082  RH  030%=      5-min Rain = 0
KPVS 250104Z 08006KT 08/M08 A3015 RMK A01 T00841082  RH  030%=      5-min Rain = 0
KPVS 250105Z 08006KT 08/M08 A3015 RMK A01 T00831082  RH  030%=      5-min Rain = 0
KPVS 250106Z 08006KT 08/M08 A3015 RMK A01 T00821082  RH  030%=      5-min Rain = 0
KPVS 250107Z 08006KT 08/M08 A3015 RMK A01 T00811082  RH  031%=      5-min Rain = 0
KPVS 250108Z 08006KT 08/M08 A3015 RMK A01 T00801081  RH  031%=      5-min Rain = 0
KPVS 250109Z 08006KT 08/M08 A3015 RMK A01 T00801082  RH  031%=      5-min Rain = 0
KPVS 250110Z 08006KT 08/M08 A3015 RMK A01 T00801081  RH  031%=      5-min Rain = 0
KPVS 250111Z 08006KT 08/M08 A3015 RMK A01 T00801081  RH  031%=      5-min Rain = 0
KPVS 250112Z 08007KT 08/M08 A3015 RMK A01 T00811080  RH  031%=      5-min Rain = 0
KPVS 250113Z 08007KT 08/M08 A3015 RMK A01 T00811080  RH  031%=      5-min Rain = 0
KPVS 250114Z 08007KT 08/M08 A3015 RMK A01 T00811080  RH  031%=      5-min Rain = 0
KPVS 250115Z 08007KT 08/M08 A3016 RMK A01 T00811080  RH  031%=      5-min Rain = 0
KPVS 250116Z 08007KT 08/M08 A3016 RMK A01 T00821080  RH  031%=      5-min Rain = 0
KPVS 250117Z 08007KT 08/M08 A3016 RMK A01 T00811080  RH  031%=      5-min Rain = 0
KPVS 250118Z 08007KT 08/M08 A3016 RMK A01 T00801080  RH  031%=      5-min Rain = 0
KPVS 250119Z 08007KT 08/M08 A3016 RMK A01 T00801079  RH  031%=      5-min Rain = 0
KPVS 250120Z 08007KT 08/M08 A3016 RMK A01 T00791079  RH  032%=      5-min Rain = 0
KPVS 250121Z 08007KT 08/M08 A3016 RMK A01 T00791080  RH  032%=      5-min Rain = 0
KPVS 250122Z 08007KT 08/M08 A3016 RMK A01 T00791079  RH  032%=      5-min Rain = 0
KPVS 250123Z 07008KT 08/M08 A3016 RMK A01 T00791079  RH  032%=      5-min Rain = 0
KPVS 250124Z 07007KT 08/M08 A3016 RMK A01 T00781079  RH  032%=      5-min Rain = 0
KPVS 250125Z 07007KT 08/M08 A3016 RMK A01 T00781079  RH  032%=      5-min Rain = 0
KPVS 250126Z 07007KT 08/M08 A3016 RMK A01 T00771078  RH  032%=      5-min Rain = 0
KPVS 250127Z 08007KT 08/M08 A3016 RMK A01 T00771077  RH  033%=      5-min Rain = 0
KPVS 250128Z 08007KT 08/M08 A3016 RMK A01 T00771077  RH  033%=      5-min Rain = 0
KPVS 250129Z 08008KT 08/M08 A3016 RMK A01 T00771077  RH  033%=      5-min Rain = 0
KPVS 250130Z 07007KT 08/M08 A3016 RMK A01 T00771077  RH  033%=      5-min Rain = 0
KPVS 250131Z 08008KT 08/M08 A3016 RMK A01 T00771077  RH  033%=      5-min Rain = 0
KPVS 250132Z 08007KT 08/M08 A3016 RMK A01 T00771077  RH  033%=      5-min Rain = 0
KPVS 250133Z 08007KT 08/M08 A3016 RMK A01 T00761077  RH  033%=      5-min Rain = 0
KPVS 250134Z 08007KT 08/M08 A3016 RMK A01 T00761078  RH  032%=      5-min Rain = 0
KPVS 250135Z 08007KT 08/M08 A3016 RMK A01 T00771079  RH  032%=      5-min Rain = 0
KPVS 250136Z 08007KT 08/M08 A3016 RMK A01 T00781079  RH  032%=      5-min Rain = 0
KPVS 250137Z 08007KT 08/M08 A3016 RMK A01 T00781080  RH  032%=      5-min Rain = 0
KPVS 250138Z 08007KT 08/M08 A3016 RMK A01 T00781080  RH  032%=      5-min Rain = 0
KPVS 250139Z 08007KT 08/M08 A3016 RMK A01 T00781080  RH  032%=      5-min Rain = 0
KPVS 250140Z 08007KT 08/M08 A3016 RMK A01 T00781080  RH  032%=      5-min Rain = 0
KPVS 250141Z 07008KT 08/M08 A3016 RMK A01 T00781080  RH  032%=      5-min Rain = 0
KPVS 250142Z 07007KT 08/M08 A3016 RMK A01 T00771081  RH  032%=      5-min Rain = 0
KPVS 250143Z 07007KT 08/M08 A3017 RMK A01 T00771080  RH  032%=      5-min Rain = 0
KPVS 250144Z 08007KT 08/M08 A3017 RMK A01 T00761081  RH  032%=      5-min Rain = 0
KPVS 250145Z 08007KT 08/M08 A3017 RMK A01 T00761081  RH  032%=      5-min Rain = 0
KPVS 250146Z 08008KT 08/M08 A3017 RMK A01 T00761080  RH  032%=      5-min Rain = 0
KPVS 250147Z 08008KT 08/M08 A3017 RMK A01 T00761081  RH  032%=      5-min Rain = 0
KPVS 250148Z 08008KT 08/M08 A3017 RMK A01 T00761081  RH  032%=      5-min Rain = 0
KPVS 250149Z 08008KT 08/M08 A3017 RMK A01 T00771081  RH  032%=      5-min Rain = 0
KPVS 250150Z 08008KT 08/M08 A3017 RMK A01 T00771081  RH  032%=      5-min Rain = 0
KPVS 250151Z 08008KT 08/M08 A3017 RMK A01 T00761081  RH  032%=      5-min Rain = 0
KPVS 250152Z 08008KT 08/M08 A3017 RMK A01 T00761081  RH  032%=      5-min Rain = 0
KPVS 250153Z 08008KT 08/M08 A3017 RMK A01 T00751081  RH  032%=      5-min Rain = 0
KPVS 250154Z 08008KT 08/M08 A3017 RMK A01 T00751081  RH  032%=      5-min Rain = 0
KPVS 250155Z 08008KT 08/M08 A3017 RMK A01 T00751081  RH  032%=      5-min Rain = 0
KPVS 250156Z 08007KT 08/M08 A3017 RMK A01 T00761082  RH  032%=      5-min Rain = 0
KPVS 250157Z 08008KT 08/M08 A3017 RMK A01 T00751081  RH  032%=      5-min Rain = 0
KPVS 250158Z 08009KT 07/M08 A3017 RMK A01 T00741082  RH  032%=      5-min Rain = 0
KPVS 250159Z 08008KT 08/M08 A3017 RMK A01 T00751082  RH  032%=      5-min Rain = 0
KPVS 250200Z 08008KT 08/M08 A3017 RMK A01 T00751082  RH  032%=      5-min Rain = 0
KPVS 250201Z 07008KT 07/M08 A3017 RMK A01 T00731082  RH  032%=      5-min Rain = 0
KPVS 250202Z 07008KT 07/M08 A3017 RMK A01 T00721081  RH  033%=      5-min Rain = 0
KPVS 250203Z 08009KT 07/M08 A3017 RMK A01 T00711081  RH  033%=      5-min Rain = 0
KPVS 250204Z 08009KT 07/M08 A3017 RMK A01 T00711081  RH  033%=      5-min Rain = 0
KPVS 250205Z 08008KT 07/M08 A3017 RMK A01 T00711081  RH  033%=      5-min Rain = 0
KPVS 250206Z 08008KT 07/M08 A3017 RMK A01 T00711081  RH  033%=      5-min Rain = 0
KPVS 250207Z 08007KT 07/M08 A3017 RMK A01 T00701081  RH  033%=      5-min Rain = 0
KPVS 250208Z 08008KT 07/M08 A3017 RMK A01 T00691082  RH  033%=      5-min Rain = 0
KPVS 250209Z 08008KT 07/M08 A3017 RMK A01 T00701082  RH  033%=      5-min Rain = 0
KPVS 250210Z 08008KT 07/M08 A3018 RMK A01 T00701082  RH  033%=      5-min Rain = 0
KPVS 250211Z 08008KT 07/M08 A3018 RMK A01 T00701081  RH  033%=      5-min Rain = 0
KPVS 250212Z 08008KT 07/M08 A3018 RMK A01 T00701081  RH  033%=      5-min Rain = 0
KPVS 250213Z 07008KT 07/M08 A3018 RMK A01 T00691081  RH  033%=      5-min Rain = 0
KPVS 250214Z 08008KT 07/M08 A3018 RMK A01 T00681081  RH  034%=      5-min Rain = 0
KPVS 250215Z 08008KT 07/M08 A3018 RMK A01 T00681082  RH  034%=      5-min Rain = 0
KPVS 250216Z 08007KT 07/M08 A3018 RMK A01 T00681082  RH  033%=      5-min Rain = 0
KPVS 250217Z 08008KT 07/M08 A3018 RMK A01 T00671082  RH  034%=      5-min Rain = 0
KPVS 250218Z 08009KT 07/M08 A3018 RMK A01 T00671083  RH  033%=      5-min Rain = 0
KPVS 250219Z 08008KT 07/M08 A3018 RMK A01 T00671083  RH  033%=      5-min Rain = 0
KPVS 250220Z 08008KT 07/M08 A3017 RMK A01 T00671083  RH  033%=      5-min Rain = 0
KPVS 250221Z 08009KT 07/M08 A3017 RMK A01 T00671083  RH  033%=      5-min Rain = 0
KPVS 250222Z 08009KT 07/M08 A3017 RMK A01 T00681083  RH  033%=      5-min Rain = 0
KPVS 250223Z 08009KT 07/M08 A3017 RMK A01 T00671082  RH  034%=      5-min Rain = 0
KPVS 250224Z 08009KT 07/M08 A3018 RMK A01 T00671082  RH  034%=      5-min Rain = 0
KPVS 250225Z 08008KT 07/M08 A3018 RMK A01 T00671082  RH  034%=      5-min Rain = 0
KPVS 250226Z 08009KT 07/M08 A3018 RMK A01 T00671082  RH  034%=      5-min Rain = 0
KPVS 250227Z 08008KT 07/M08 A3018 RMK A01 T00681082  RH  034%=      5-min Rain = 0
KPVS 250228Z 08009KT 07/M08 A3018 RMK A01 T00681081  RH  034%=      5-min Rain = 0
KPVS 250229Z 07008KT 07/M08 A3018 RMK A01 T00681082  RH  033%=      5-min Rain = 0
KPVS 250230Z 07008KT 07/M08 A3018 RMK A01 T00681082  RH  033%=      5-min Rain = 0
KPVS 250231Z 08009KT 07/M08 A3018 RMK A01 T00671082  RH  034%=      5-min Rain = 0
KPVS 250232Z 08008KT 07/M08 A3018 RMK A01 T00671082  RH  034%=      5-min Rain = 0
KPVS 250233Z 08009KT 07/M08 A3018 RMK A01 T00681081  RH  034%=      5-min Rain = 0
KPVS 250234Z 08009KT 07/M08 A3018 RMK A01 T00681082  RH  034%=      5-min Rain = 0
KPVS 250235Z 08008KT 07/M08 A3018 RMK A01 T00681082  RH  034%=      5-min Rain = 0
KPVS 250236Z 08009KT 07/M08 A3018 RMK A01 T00681082  RH  034%=      5-min Rain = 0
KPVS 250237Z 08009KT 07/M08 A3018 RMK A01 T00681082  RH  034%=      5-min Rain = 0
KPVS 250238Z 08009KT 07/M08 A3018 RMK A01 T00681082  RH  034%=      5-min Rain = 0
KPVS 250239Z 08009KT 07/M08 A3018 RMK A01 T00671082  RH  034%=      5-min Rain = 0
KPVS 250240Z 08010KT 07/M08 A3018 RMK A01 T00671082  RH  034%=      5-min Rain = 0
KPVS 250241Z 08008KT 07/M08 A3018 RMK A01 T00671082  RH  034%=      5-min Rain = 0
KPVS 250242Z 08009KT 07/M08 A3018 RMK A01 T00671082  RH  034%=      5-min Rain = 0
KPVS 250243Z 08009KT 07/M08 A3018 RMK A01 T00671082  RH  034%=      5-min Rain = 0
KPVS 250244Z 08010KT 07/M08 A3018 RMK A01 T00671082  RH  034%=      5-min Rain = 0
KPVS 250245Z 08009KT 07/M08 A3018 RMK A01 T00661082  RH  034%=      5-min Rain = 0
KPVS 250246Z 08010KT 07/M08 A3018 RMK A01 T00661083  RH  034%=      5-min Rain = 0
KPVS 250247Z 08009KT 07/M08 A3018 RMK A01 T00661083  RH  034%=      5-min Rain = 0
KPVS 250248Z 08009KT 07/M08 A3018 RMK A01 T00661083  RH  034%=      5-min Rain = 0
KPVS 250249Z 08008KT 07/M08 A3018 RMK A01 T00651083  RH  034%=      5-min Rain = 0
KPVS 250250Z 08009KT 06/M08 A3018 RMK A01 T00641083  RH  034%=      5-min Rain = 0
KPVS 250251Z 08008KT 06/M08 A3018 RMK A01 T00641084  RH  034%=      5-min Rain = 0
KPVS 250252Z 08008KT 06/M08 A3018 RMK A01 T00641084  RH  034%=      5-min Rain = 0
KPVS 250253Z 08009KT 06/M08 A3018 RMK A01 T00631084  RH  034%=      5-min Rain = 0
KPVS 250254Z 08009KT 06/M08 A3018 RMK A01 T00631084  RH  034%=      5-min Rain = 0
KPVS 250255Z 08009KT 06/M08 A3018 RMK A01 T00621084  RH  034%=      5-min Rain = 0
KPVS 250256Z 08009KT 06/M08 A3018 RMK A01 T00611084  RH  035%=      5-min Rain = 0
KPVS 250257Z 08009KT 06/M08 A3018 RMK A01 T00601084  RH  035%=      5-min Rain = 0
KPVS 250258Z 08010KT 06/M08 A3018 RMK A01 T00601084  RH  035%=      5-min Rain = 0
KPVS 250259Z 08010KT 06/M08 A3018 RMK A01 T00601084  RH  035%=      5-min Rain = 0
KPVS 250300Z 08011KT 06/M08 A3018 RMK A01 T00611084  RH  034%=      5-min Rain = 0
KPVS 250301Z 08010KT 06/M08 A3018 RMK A01 T00611084  RH  034%=      5-min Rain = 0
KPVS 250302Z 08010KT 06/M08 A3018 RMK A01 T00621084  RH  034%=      5-min Rain = 0
KPVS 250303Z 08010KT 06/M08 A3018 RMK A01 T00631084  RH  034%=      5-min Rain = 0
KPVS 250304Z 08009KT 06/M08 A3018 RMK A01 T00631084  RH  034%=      5-min Rain = 0
KPVS 250305Z 08010KT 06/M08 A3018 RMK A01 T00621084  RH  034%=      5-min Rain = 0
KPVS 250306Z 08011KT 06/M08 A3018 RMK A01 T00621084  RH  034%=      5-min Rain = 0
KPVS 250307Z 08010KT 06/M08 A3018 RMK A01 T00621084  RH  034%=      5-min Rain = 0
KPVS 250308Z 08010KT 06/M09 A3018 RMK A01 T00631085  RH  034%=      5-min Rain = 0
KPVS 250309Z 08010KT 06/M08 A3018 RMK A01 T00631084  RH  034%=      5-min Rain = 0
KPVS 250310Z 08010KT 06/M08 A3018 RMK A01 T00631084  RH  034%=      5-min Rain = 0
KPVS 250311Z 08009KT 06/M08 A3018 RMK A01 T00621084  RH  034%=      5-min Rain = 0
KPVS 250312Z 08009KT 06/M08 A3018 RMK A01 T00621084  RH  034%=      5-min Rain = 0
KPVS 250313Z 08008KT 06/M08 A3018 RMK A01 T00611084  RH  034%=      5-min Rain = 0
KPVS 250314Z 08010KT 06/M08 A3018 RMK A01 T00611084  RH  035%=      5-min Rain = 0
KPVS 250315Z 08009KT 06/M08 A3018 RMK A01 T00611084  RH  035%=      5-min Rain = 0
KPVS 250316Z 08009KT 06/M08 A3018 RMK A01 T00611084  RH  035%=      5-min Rain = 0
KPVS 250317Z 08008KT 06/M08 A3018 RMK A01 T00601084  RH  035%=      5-min Rain = 0
KPVS 250318Z 08008G14KT 06/M08 A3018 RMK A01 T00601084  RH  035%=      5-min Rain = 0
KPVS 250319Z 08010KT 06/M08 A3018 RMK A01 T00601084  RH  035%=      5-min Rain = 0
KPVS 250320Z 08009KT 06/M08 A3018 RMK A01 T00601084  RH  035%=      5-min Rain = 0
KPVS 250321Z 08009KT 06/M08 A3018 RMK A01 T00601084  RH  035%=      5-min Rain = 0
KPVS 250322Z 08009KT 06/M08 A3018 RMK A01 T00601084  RH  035%=      5-min Rain = 0
KPVS 250323Z 08010KT 06/M08 A3018 RMK A01 T00601083  RH  035%=      5-min Rain = 0
KPVS 250324Z 08010KT 06/M08 A3018 RMK A01 T00601083  RH  035%=      5-min Rain = 0
KPVS 250325Z 08010KT 06/M08 A3018 RMK A01 T00601083  RH  035%=      5-min Rain = 0
KPVS 250326Z 08009KT 06/M08 A3018 RMK A01 T00601084  RH  035%=      5-min Rain = 0
KPVS 250327Z 08009KT 06/M08 A3018 RMK A01 T00591084  RH  035%=      5-min Rain = 0
KPVS 250328Z 08009KT 06/M08 A3019 RMK A01 T00581084  RH  035%=      5-min Rain = 0
KPVS 250329Z 08009KT 06/M08 A3019 RMK A01 T00571083  RH  036%=      5-min Rain = 0
KPVS 250330Z 08009KT 06/M08 A3019 RMK A01 T00571083  RH  036%=      5-min Rain = 0
KPVS 250331Z 08008KT 06/M08 A3019 RMK A01 T00571082  RH  036%=      5-min Rain = 0
KPVS 250332Z 08009KT 06/M08 A3019 RMK A01 T00561082  RH  036%=      5-min Rain = 0
KPVS 250333Z 08009KT 06/M08 A3019 RMK A01 T00561083  RH  036%=      5-min Rain = 0
KPVS 250334Z 08008KT 06/M08 A3019 RMK A01 T00581082  RH  036%=      5-min Rain = 0
KPVS 250335Z 08009KT 06/M08 A3019 RMK A01 T00581083  RH  036%=      5-min Rain = 0
KPVS 250336Z 08011KT 06/M08 A3018 RMK A01 T00571083  RH  036%=      5-min Rain = 0
KPVS 250337Z 08010KT 06/M08 A3019 RMK A01 T00591083  RH  035%=      5-min Rain = 0
KPVS 250338Z 08010KT 06/M08 A3019 RMK A01 T00591083  RH  035%=      5-min Rain = 0
KPVS 250339Z 08010KT 06/M08 A3019 RMK A01 T00591083  RH  035%=      5-min Rain = 0
KPVS 250340Z 08009KT 06/M08 A3019 RMK A01 T00591083  RH  035%=      5-min Rain = 0
KPVS 250341Z 08011G16KT 06/M08 A3018 RMK A01 T00581083  RH  035%=      5-min Rain = 0
KPVS 250342Z 08011KT 06/M08 A3018 RMK A01 T00581083  RH  035%=      5-min Rain = 0
KPVS 250343Z 08010KT 06/M08 A3019 RMK A01 T00591083  RH  035%=      5-min Rain = 0
KPVS 250344Z 08010KT 06/M08 A3019 RMK A01 T00591083  RH  035%=      5-min Rain = 0
KPVS 250345Z 08011KT 06/M08 A3019 RMK A01 T00581084  RH  035%=      5-min Rain = 0
KPVS 250346Z 08010KT 06/M08 A3019 RMK A01 T00581084  RH  035%=      5-min Rain = 0
KPVS 250347Z 08009KT 06/M08 A3019 RMK A01 T00581084  RH  035%=      5-min Rain = 0
KPVS 250348Z 08009KT 06/M08 A3019 RMK A01 T00571084  RH  036%=      5-min Rain = 0
KPVS 250349Z 08010KT 06/M08 A3019 RMK A01 T00561084  RH  036%=      5-min Rain = 0
KPVS 250350Z 08011KT 06/M08 A3019 RMK A01 T00571084  RH  036%=      5-min Rain = 0
KPVS 250351Z 08011KT 06/M08 A3019 RMK A01 T00571083  RH  036%=      5-min Rain = 0
KPVS 250352Z 08010KT 06/M08 A3019 RMK A01 T00571083  RH  036%=      5-min Rain = 0
KPVS 250353Z 08010KT 06/M08 A3019 RMK A01 T00571083  RH  036%=      5-min Rain = 0
KPVS 250354Z 08010KT 06/M08 A3019 RMK A01 T00561083  RH  036%=      5-min Rain = 0
KPVS 250355Z 08011KT 06/M08 A3019 RMK A01 T00561084  RH  036%=      5-min Rain = 0
KPVS 250356Z 08010KT 06/M08 A3019 RMK A01 T00561084  RH  036%=      5-min Rain = 0
KPVS 250357Z 08010KT 06/M08 A3019 RMK A01 T00551084  RH  036%=      5-min Rain = 0
KPVS 250358Z 08011KT 06/M08 A3019 RMK A01 T00561083  RH  036%=      5-min Rain = 0
KPVS 250359Z 08010KT 06/M08 A3019 RMK A01 T00561084  RH  036%=      5-min Rain = 0
KPVS 250400Z 08010KT 06/M08 A3019 RMK A01 T00561084  RH  036%=      5-min Rain = 0
KPVS 250401Z 08010KT 06/M08 A3019 RMK A01 T00561084  RH  036%=      5-min Rain = 0
KPVS 250402Z 08009KT 06/M08 A3019 RMK A01 T00561084  RH  036%=      5-min Rain = 0
KPVS 250403Z 08010KT 06/M08 A3019 RMK A01 T00561084  RH  036%=      5-min Rain = 0
KPVS 250404Z 08010KT 06/M08 A3019 RMK A01 T00551084  RH  036%=      5-min Rain = 0
KPVS 250405Z 08010KT 06/M08 A3019 RMK A01 T00551083  RH  036%=      5-min Rain = 0
KPVS 250406Z 08009KT 06/M08 A3019 RMK A01 T00551083  RH  036%=      5-min Rain = 0
KPVS 250407Z 08008KT 05/M08 A3019 RMK A01 T00541084  RH  036%=      5-min Rain = 0
KPVS 250408Z 08008KT 05/M08 A3019 RMK A01 T00531084  RH  037%=      5-min Rain = 0
KPVS 250409Z 08009KT 05/M08 A3019 RMK A01 T00521083  RH  037%=      5-min Rain = 0
KPVS 250410Z 08010KT 05/M08 A3019 RMK A01 T00521084  RH  037%=      5-min Rain = 0
KPVS 250411Z 08010KT 05/M08 A3019 RMK A01 T00521084  RH  037%=      5-min Rain = 0
KPVS 250412Z 08010KT 05/M08 A3019 RMK A01 T00521084  RH  037%=      5-min Rain = 0
KPVS 250413Z 08009KT 05/M08 A3019 RMK A01 T00521084  RH  037%=      5-min Rain = 0
KPVS 250414Z 08009KT 05/M08 A3019 RMK A01 T00511084  RH  037%=      5-min Rain = 0
KPVS 250415Z 08008KT 05/M08 A3019 RMK A01 T00511083  RH  037%=      5-min Rain = 0
KPVS 250416Z 08008KT 05/M08 A3019 RMK A01 T00491083  RH  038%=      5-min Rain = 0
KPVS 250417Z 08009KT 05/M08 A3019 RMK A01 T00481083  RH  038%=      5-min Rain = 0
KPVS 250418Z 08010KT 05/M08 A3019 RMK A01 T00491083  RH  038%=      5-min Rain = 0
KPVS 250419Z 08009KT 05/M08 A3019 RMK A01 T00501083  RH  038%=      5-min Rain = 0
KPVS 250420Z 08008KT 05/M08 A3019 RMK A01 T00501083  RH  038%=      5-min Rain = 0
KPVS 250421Z 09009KT 05/M08 A3019 RMK A01 T00481083  RH  038%=      5-min Rain = 0
KPVS 250422Z 09008KT 05/M08 A3019 RMK A01 T00491083  RH  038%=      5-min Rain = 0
KPVS 250423Z 09009KT 05/M08 A3019 RMK A01 T00491083  RH  038%=      5-min Rain = 0
KPVS 250424Z 08008KT 05/M08 A3019 RMK A01 T00491083  RH  038%=      5-min Rain = 0
KPVS 250425Z 09009KT 05/M08 A3019 RMK A01 T00491082  RH  038%=      5-min Rain = 0
KPVS 250426Z 09009KT 05/M08 A3019 RMK A01 T00491082  RH  038%=      5-min Rain = 0
KPVS 250427Z 09008KT 05/M08 A3019 RMK A01 T00491083  RH  038%=      5-min Rain = 0
KPVS 250428Z 09009KT 05/M08 A3019 RMK A01 T00481083  RH  038%=      5-min Rain = 0
KPVS 250429Z 08008KT 05/M08 A3019 RMK A01 T00481083  RH  038%=      5-min Rain = 0
KPVS 250430Z 08008KT 05/M08 A3019 RMK A01 T00481083  RH  038%=      5-min Rain = 0
KPVS 250431Z 09008KT 05/M08 A3019 RMK A01 T00481083  RH  038%=      5-min Rain = 0
KPVS 250432Z 09008KT 05/M08 A3019 RMK A01 T00471083  RH  038%=      5-min Rain = 0
KPVS 250433Z 09009KT 05/M08 A3019 RMK A01 T00481083  RH  038%=      5-min Rain = 0
KPVS 250434Z 09007KT 05/M08 A3019 RMK A01 T00481083  RH  038%=      5-min Rain = 0
KPVS 250435Z 09008KT 05/M08 A3019 RMK A01 T00471083  RH  038%=      5-min Rain = 0
KPVS 250436Z 08008KT 05/M08 A3019 RMK A01 T00461084  RH  038%=      5-min Rain = 0
KPVS 250437Z 09008KT 05/M08 A3019 RMK A01 T00461084  RH  039%=      5-min Rain = 0
KPVS 250438Z 09007KT 05/M08 A3019 RMK A01 T00461083  RH  039%=      5-min Rain = 0
KPVS 250439Z 09008KT 05/M08 A3019 RMK A01 T00451083  RH  039%=      5-min Rain = 0
KPVS 250440Z 09007KT 05/M08 A3019 RMK A01 T00451083  RH  039%=      5-min Rain = 0
KPVS 250441Z 09007KT 04/M08 A3019 RMK A01 T00441083  RH  039%=      5-min Rain = 0
KPVS 250442Z 09007KT 04/M08 A3019 RMK A01 T00441083  RH  039%=      5-min Rain = 0
KPVS 250443Z 09007KT 04/M08 A3019 RMK A01 T00441083  RH  039%=      5-min Rain = 0
KPVS 250444Z 09007KT 04/M08 A3019 RMK A01 T00431083  RH  039%=      5-min Rain = 0
KPVS 250445Z 10008KT 04/M08 A3019 RMK A01 T00431084  RH  039%=      5-min Rain = 0
KPVS 250446Z 09009KT 04/M08 A3019 RMK A01 T00421084  RH  040%=      5-min Rain = 0
KPVS 250447Z 09009KT 04/M08 A3019 RMK A01 T00421084  RH  039%=      5-min Rain = 0
KPVS 250448Z 09009KT 04/M09 A3019 RMK A01 T00431085  RH  039%=      5-min Rain = 0
KPVS 250449Z 09008KT 04/M09 A3019 RMK A01 T00431085  RH  039%=      5-min Rain = 0
KPVS 250450Z 09009KT 04/M09 A3019 RMK A01 T00431085  RH  039%=      5-min Rain = 0
KPVS 250451Z 09009KT 04/M09 A3019 RMK A01 T00431085  RH  039%=      5-min Rain = 0
KPVS 250452Z 09009KT 04/M09 A3019 RMK A01 T00431085  RH  039%=      5-min Rain = 0
KPVS 250453Z 09010KT 04/M09 A3019 RMK A01 T00431085  RH  039%=      5-min Rain = 0
KPVS 250454Z 09010KT 04/M09 A3019 RMK A01 T00431085  RH  039%=      5-min Rain = 0
KPVS 250455Z 09009KT 04/M08 A3018 RMK A01 T00431084  RH  039%=      5-min Rain = 0
KPVS 250456Z 09009KT 04/M08 A3018 RMK A01 T00431084  RH  039%=      5-min Rain = 0
KPVS 250457Z 09010KT 04/M08 A3019 RMK A01 T00431084  RH  039%=      5-min Rain = 0
KPVS 250458Z 09008G13KT 04/M08 A3019 RMK A01 T00431084  RH  039%=      5-min Rain = 0
KPVS 250459Z 09007KT 04/M08 A3019 RMK A01 T00421084  RH  039%=      5-min Rain = 0
KPVS 250500Z 09008KT 04/M08 A3019 RMK A01 T00421084  RH  039%=      5-min Rain = 0
KPVS 250501Z 09009KT 04/M08 A3019 RMK A01 T00421084  RH  039%=      5-min Rain = 0
KPVS 250502Z 09008KT 04/M08 A3019 RMK A01 T00421084  RH  039%=      5-min Rain = 0
KPVS 250503Z 09009KT 04/M08 A3019 RMK A01 T00421084  RH  040%=      5-min Rain = 0
KPVS 250504Z 09008KT 04/M08 A3019 RMK A01 T00421084  RH  040%=      5-min Rain = 0
KPVS 250505Z 09008KT 04/M08 A3019 RMK A01 T00421084  RH  040%=      5-min Rain = 0
KPVS 250506Z 09007KT 04/M08 A3019 RMK A01 T00411084  RH  040%=      5-min Rain = 0
KPVS 250507Z 09007KT 04/M08 A3019 RMK A01 T00401084  RH  040%=      5-min Rain = 0
KPVS 250508Z 09007KT 04/M08 A3019 RMK A01 T00391084  RH  040%=      5-min Rain = 0
KPVS 250509Z 09007KT 04/M08 A3019 RMK A01 T00391083  RH  040%=      5-min Rain = 0
KPVS 250510Z 09007KT 04/M08 A3019 RMK A01 T00391083  RH  041%=      5-min Rain = 0
KPVS 250511Z 09007KT 04/M08 A3019 RMK A01 T00381083  RH  041%=      5-min Rain = 0
KPVS 250512Z 09007KT 04/M08 A3019 RMK A01 T00371083  RH  041%=      5-min Rain = 0
KPVS 250513Z 09007KT 04/M08 A3019 RMK A01 T00371083  RH  041%=      5-min Rain = 0
KPVS 250514Z 09007KT 04/M08 A3019 RMK A01 T00361083  RH  041%=      5-min Rain = 0
KPVS 250515Z 09009KT 04/M08 A3019 RMK A01 T00361083  RH  041%=      5-min Rain = 0
KPVS 250516Z 09008KT 04/M08 A3019 RMK A01 T00371083  RH  041%=      5-min Rain = 0
KPVS 250517Z 09007KT 04/M08 A3019 RMK A01 T00361083  RH  041%=      5-min Rain = 0
KPVS 250518Z 09008KT 04/M08 A3019 RMK A01 T00351083  RH  042%=      5-min Rain = 0
KPVS 250519Z 09007KT 04/M08 A3019 RMK A01 T00351083  RH  042%=      5-min Rain = 0
KPVS 250520Z 09007KT 04/M08 A3019 RMK A01 T00351083  RH  042%=      5-min Rain = 0
KPVS 250521Z 09009KT 04/M08 A3019 RMK A01 T00351083  RH  042%=      5-min Rain = 0
KPVS 250522Z 09007KT 04/M08 A3019 RMK A01 T00351083  RH  042%=      5-min Rain = 0
KPVS 250523Z 09009KT 03/M08 A3019 RMK A01 T00341083  RH  042%=      5-min Rain = 0
KPVS 250524Z 09009KT 03/M08 A3019 RMK A01 T00341083  RH  042%=      5-min Rain = 0
KPVS 250525Z 09009KT 03/M08 A3019 RMK A01 T00341083  RH  042%=      5-min Rain = 0
KPVS 250526Z 09008KT 03/M08 A3019 RMK A01 T00341084  RH  042%=      5-min Rain = 0
KPVS 250527Z 09008KT 04/M08 A3019 RMK A01 T00351083  RH  042%=      5-min Rain = 0
KPVS 250528Z 09010KT 03/M08 A3019 RMK A01 T00341084  RH  042%=      5-min Rain = 0
KPVS 250529Z 09009KT 03/M08 A3019 RMK A01 T00341084  RH  042%=      5-min Rain = 0
KPVS 250530Z 09008KT 03/M08 A3019 RMK A01 T00341084  RH  042%=      5-min Rain = 0
KPVS 250531Z 09008KT 03/M08 A3019 RMK A01 T00341084  RH  042%=      5-min Rain = 0
KPVS 250532Z 09008KT 03/M08 A3019 RMK A01 T00341084  RH  042%=      5-min Rain = 0
KPVS 250533Z 09009KT 03/M08 A3019 RMK A01 T00331084  RH  042%=      5-min Rain = 0
KPVS 250534Z 10008KT 03/M08 A3019 RMK A01 T00331084  RH  042%=      5-min Rain = 0
KPVS 250535Z 09009KT 03/M08 A3019 RMK A01 T00321084  RH  042%=      5-min Rain = 0
KPVS 250536Z 09008KT 03/M08 A3019 RMK A01 T00321084  RH  042%=      5-min Rain = 0
KPVS 250537Z 09008KT 03/M08 A3019 RMK A01 T00321084  RH  042%=      5-min Rain = 0
KPVS 250538Z 09008KT 03/M08 A3019 RMK A01 T00321084  RH  042%=      5-min Rain = 0
KPVS 250539Z 09007KT 03/M09 A3019 RMK A01 T00321085  RH  042%=      5-min Rain = 0
KPVS 250540Z 09007KT 03/M08 A3019 RMK A01 T00321084  RH  042%=      5-min Rain = 0
KPVS 250541Z 09008G13KT 03/M09 A3019 RMK A01 T00321085  RH  042%=      5-min Rain = 0
KPVS 250542Z 09010KT 03/M09 A3019 RMK A01 T00321085  RH  042%=      5-min Rain = 0
KPVS 250543Z 09008G15KT 03/M09 A3019 RMK A01 T00321085  RH  042%=      5-min Rain = 0
KPVS 250544Z 09010KT 03/M08 A3019 RMK A01 T00321084  RH  042%=      5-min Rain = 0
KPVS 250545Z 09009KT 03/M08 A3019 RMK A01 T00331084  RH  042%=      5-min Rain = 0
KPVS 250546Z 09010KT 03/M08 A3019 RMK A01 T00331084  RH  042%=      5-min Rain = 0
KPVS 250547Z 09010KT 03/M08 A3019 RMK A01 T00331084  RH  042%=      5-min Rain = 0
KPVS 250548Z 09010KT 03/M08 A3019 RMK A01 T00341084  RH  042%=      5-min Rain = 0
KPVS 250549Z 09010KT 03/M08 A3019 RMK A01 T00341084  RH  042%=      5-min Rain = 0
KPVS 250550Z 09010KT 03/M08 A3019 RMK A01 T00341084  RH  042%=      5-min Rain = 0
KPVS 250551Z 09008KT 03/M08 A302 RMK A01 T00341084  RH  042%=      5-min Rain = 0
KPVS 250552Z 09011KT 03/M08 A3019 RMK A01 T00331084  RH  042%=      5-min Rain = 0
KPVS 250553Z 09009KT 03/M08 A302 RMK A01 T00331084  RH  042%=      5-min Rain = 0
KPVS 250554Z 10009G14KT 03/M08 A3019 RMK A01 T00331083  RH  042%=      5-min Rain = 0
KPVS 250555Z 10009G14KT 03/M08 A302 RMK A01 T00321083  RH  042%=      5-min Rain = 0
KPVS 250556Z 09009G14KT 03/M08 A302 RMK A01 T00321083  RH  042%=      5-min Rain = 0
KPVS 250557Z 10009KT 03/M08 A302 RMK A01 T00321083  RH  043%=      5-min Rain = 0
KPVS 250558Z 09010KT 03/M08 A3019 RMK A01 T00321083  RH  043%=      5-min Rain = 0
KPVS 250559Z 09010KT 03/M08 A3019 RMK A01 T00321083  RH  043%=      5-min Rain = 0

Page generated in 0.113 seconds.